Boston Pilot Mystic — VHF20 — position and weather

sailwx.info

Track history (hours):
 
Tides and Currents Weather Stations Pressure Air Temp Water Temp Dewpoint Dewpoint Depression Visibility Wind Speed Wind Dir Waves Ship Positions

Boston Pilot Mystic

Last reported at 2018-Aug-16 08:30 UTC. Time now 2018-Aug-16 08:44 UTC.
Position N 42°22' W 071°02'.

Length 16 m; draft 1.5 m.

Type: Pilot. MMSI: 367029020.

Date/timePositionNaut miles runAvg speedWind from/ knotsBaromVisibWave heightAir tempDewpointWater temp
2018-Aug-16 08:30N 42°22' W 071°02'0 0.0
2018-Aug-16 08:00N 42°22' W 071°02'0 0.0
2018-Aug-16 07:30N 42°22' W 071°02'0 0.0
2018-Aug-16 07:00N 42°22' W 071°02'0 0.0
2018-Aug-16 06:30N 42°22' W 071°02'0 0.0
2018-Aug-16 06:00N 42°22' W 071°02'0 0.0
2018-Aug-16 05:30N 42°22' W 071°02'206683.1
2018-Aug-16 05:30N 42°12' W 070°37'1633.2
2018-Aug-16 05:00N 42°20' W 070°57'612.9
2018-Aug-16 04:30N 42°19' W 070°48'63692.5
2018-Aug-16 04:30N 42°21' W 070°56'2 4.5
2018-Aug-16 04:00N 42°19' W 070°54'519786.8
2018-Aug-16 04:00N 42°21' W 071°01'1 1.4
2018-Aug-16 03:30N 42°22' W 071°02'12571.9
2018-Aug-16 03:30N 42°21' W 071°01'1 2.9
2018-Aug-16 03:00N 42°22' W 071°02'0 0.0
2018-Aug-16 02:30N 42°22' W 071°02'021.6
2018-Aug-16 02:30N 42°22' W 071°02'0 0.0
2018-Aug-16 02:00N 42°22' W 071°02'5520.5
2018-Aug-16 02:00N 42°21' W 070°55'5 9.8
2018-Aug-16 01:30N 42°22' W 071°02'415548.1
2018-Aug-16 01:30N 42°21' W 070°56'4 7.0
2018-Aug-16 01:00N 42°21' W 071°01'1324.5
2018-Aug-16 01:00N 42°22' W 071°02'0 0.0
2018-Aug-16 00:30N 42°22' W 071°02'0 0.0
2018-Aug-16 00:00N 42°22' W 071°02'013.3
2018-Aug-16 00:00N 42°22' W 071°02'0 0.0
2018-Aug-15 23:30N 42°22' W 071°02'0 0.0
2018-Aug-15 23:00N 42°22' W 071°02'0 0.0
2018-Aug-15 22:30N 42°22' W 071°02'0 0.0
2018-Aug-15 22:00N 42°22' W 071°02'064.8
2018-Aug-15 22:00N 42°22' W 071°02'4 8.7
2018-Aug-15 21:30N 42°19' W 070°58'41569.1
2018-Aug-15 21:30N 42°22' W 071°02'2 5.0
2018-Aug-15 21:00N 42°20' W 070°60'21792.6
2018-Aug-15 21:00N 42°22' W 071°02'3 5.7
2018-Aug-15 20:31N 42°20' W 070°59'35106.9
2018-Aug-15 20:30N 42°22' W 071°02'5 9.6
2018-Aug-15 20:00N 42°22' W 070°55'5 9.7
2018-Aug-15 19:30N 42°22' W 071°02'189.3
2018-Aug-15 19:30N 42°21' W 071°02'1 1.1
2018-Aug-15 19:01N 42°22' W 071°02'11204.0
2018-Aug-15 19:00N 42°23' W 071°03'1 2.7
2018-Aug-15 18:30N 42°22' W 071°02'0 2.7
2018-Aug-15 18:30N 42°22' W 071°02'2 3.1
2018-Aug-15 18:00N 42°21' W 071°00'25575.2
2018-Aug-15 18:00N 42°22' W 071°02'612.0
2018-Aug-15 17:30N 42°21' W 070°54'6937.9
2018-Aug-15 17:30N 42°22' W 071°02'0 0.0
2018-Aug-15 17:00N 42°22' W 071°02'11331.0
2018-Aug-15 16:58N 42°21' W 070°47'510.7
2018-Aug-15 16:30N 42°21' W 070°54'621376.1
2018-Aug-15 16:30N 42°22' W 071°02'0 0.1
2018-Aug-15 16:00N 42°22' W 071°02'5 9.2
2018-Aug-15 15:31N 42°21' W 070°56'5 9.2
2018-Aug-15 15:00N 42°22' W 071°02'5537.1
2018-Aug-15 15:00N 42°22' W 070°55'4 8.4
2018-Aug-15 14:30N 42°21' W 071°01'1 2.4
2018-Aug-15 14:00N 42°22' W 071°02'0 0.8
2018-Aug-15 13:59N 42°22' W 071°02'0 0.0
2018-Aug-15 13:30N 42°22' W 071°02'0 0.0
2018-Aug-15 13:00N 42°22' W 071°02'0 0.0
2018-Aug-15 12:30N 42°22' W 071°02'0 0.0
2018-Aug-15 12:00N 42°22' W 071°02'0 0.0
2018-Aug-15 11:30N 42°22' W 071°02'0 0.0
2018-Aug-15 11:00N 42°22' W 071°02'0 0.0
2018-Aug-15 10:30N 42°22' W 071°02'1 2.9
2018-Aug-15 10:00N 42°23' W 071°03'11708.4
2018-Aug-15 10:00N 42°22' W 071°02'0 0.0
2018-Aug-15 09:30N 42°22' W 071°02'0 1.4
2018-Aug-15 09:30N 42°22' W 071°02'0 0.0
2018-Aug-15 09:00N 42°22' W 071°02'016.0
2018-Aug-15 09:00N 42°22' W 071°02'4 7.3
2018-Aug-15 08:30N 42°20' W 070°57'413134.4
2018-Aug-15 08:30N 42°22' W 071°02'918.1
2018-Aug-15 08:00N 42°24' W 070°50'910803.4
2018-Aug-15 08:00N 42°22' W 071°02'612.9
2018-Aug-15 07:30N 42°22' W 070°53'612.8
2018-Aug-15 07:00N 42°22' W 071°02'61230.0
2018-Aug-15 07:00N 42°22' W 070°53'613.1
2018-Aug-15 06:30N 42°22' W 071°02'7213.6
2018-Aug-15 06:28N 42°22' W 070°53'0 0.5
2018-Aug-15 06:01N 42°22' W 070°53'71313.1
2018-Aug-15 06:00N 42°22' W 071°02'0 0.0
2018-Aug-15 05:31N 42°22' W 071°02'712845.1
2018-Aug-15 05:31N 42°22' W 070°52'2 4.1
2018-Aug-15 05:00N 42°24' W 070°50'931285.8
2018-Aug-15 05:00N 42°22' W 071°02'0 0.0
2018-Aug-15 04:31N 42°22' W 071°02'7103.4
2018-Aug-15 04:26N 42°22' W 070°52'716.3
2018-Aug-15 04:01N 42°22' W 071°02'76373.7
2018-Aug-15 04:00N 42°22' W 070°52'1 1.4
2018-Aug-15 03:30N 42°23' W 070°53'72055.1
2018-Aug-15 03:30N 42°22' W 071°02'0 0.0
2018-Aug-15 03:00N 42°22' W 071°02'416159.6
2018-Aug-15 03:00N 42°21' W 070°56'4 9.0
2018-Aug-15 02:30N 42°22' W 071°02'31907.2
2018-Aug-15 02:30N 42°20' W 070°59'3 5.3
2018-Aug-15 02:00N 42°22' W 071°02'0 0.0
2018-Aug-15 01:30N 42°22' W 071°02'0 0.0
2018-Aug-15 01:00N 42°22' W 071°02'0 2.8
2018-Aug-15 01:00N 42°22' W 071°02'0 0.0
2018-Aug-15 00:30N 42°22' W 071°02'066.7
2018-Aug-15 00:30N 42°22' W 071°02'0 0.0
2018-Aug-15 00:00N 42°22' W 071°02'0 2.8
2018-Aug-15 00:00N 42°22' W 071°02'0 0.0
2018-Aug-14 23:30N 42°22' W 071°02'0 0.0
2018-Aug-14 23:00N 42°22' W 071°02'0 2.0
2018-Aug-14 23:00N 42°22' W 071°02'0 0.0
2018-Aug-14 22:30N 42°22' W 071°02'1304.3
2018-Aug-14 22:30N 42°21' W 071°01'1 1.7
2018-Aug-14 22:00N 42°22' W 071°02'2103.5
2018-Aug-14 21:59N 42°21' W 071°00'2 3.4
2018-Aug-14 21:30N 42°22' W 071°02'0 0.0
2018-Aug-14 21:00N 42°22' W 071°02'0 0.0
2018-Aug-14 20:30N 42°22' W 071°02'016.0
2018-Aug-14 20:30N 42°22' W 071°02'0 0.0
2018-Aug-14 20:00N 42°22' W 071°02'0 5.3
2018-Aug-14 20:00N 42°22' W 071°02'0 0.0
2018-Aug-14 19:30N 42°22' W 071°02'0 0.0
2018-Aug-14 19:00N 42°22' W 071°02'0 0.0
2018-Aug-14 18:31N 42°22' W 071°02'0 0.4
2018-Aug-14 18:30N 42°22' W 071°02'0 0.0
2018-Aug-14 18:00N 42°22' W 071°02'0 0.5
2018-Aug-14 17:59N 42°22' W 071°02'0 0.0
2018-Aug-14 17:30N 42°22' W 071°02'39504.9
2018-Aug-14 17:30N 42°20' W 070°59'3 5.3
2018-Aug-14 17:00N 42°22' W 071°02'92124.2
2018-Aug-14 17:00N 42°20' W 070°50'917.9
2018-Aug-14 16:30N 42°22' W 071°02'9317.7
2018-Aug-14 16:29N 42°20' W 070°50'919.3
2018-Aug-14 16:00N 42°22' W 071°02'11819.8
2018-Aug-14 16:00N 42°21' W 070°47'3 7.0
2018-Aug-14 15:30N 42°24' W 070°50'97975.1
2018-Aug-14 15:30N 42°22' W 071°02'0 0.0
2018-Aug-14 15:01N 42°22' W 071°02'518380.6
2018-Aug-14 15:01N 42°23' W 070°55'510.2
2018-Aug-14 14:30N 42°22' W 071°02'14758.6
2018-Aug-14 14:30N 42°21' W 071°01'1 2.6
2018-Aug-14 14:00N 42°22' W 071°02'312399.6
2018-Aug-14 14:00N 42°20' W 070°58'4 7.1
2018-Aug-14 13:30N 42°22' W 070°54'612.1
2018-Aug-14 13:00N 42°22' W 071°02'102857.4
2018-Aug-14 13:00N 42°24' W 070°49'1019.3
2018-Aug-14 12:30N 42°22' W 071°02'0 0.0
2018-Aug-14 12:01N 42°22' W 071°02'3 5.9
2018-Aug-14 11:30N 42°20' W 070°58'3 6.7
2018-Aug-14 11:00N 42°22' W 070°55'510.8
2018-Aug-14 10:30N 42°22' W 071°02'39310.3
2018-Aug-14 10:30N 42°20' W 070°59'3 5.2
2018-Aug-14 10:01N 42°22' W 071°02'016.0
2018-Aug-14 10:00N 42°22' W 071°02'1 2.4
2018-Aug-14 09:30N 42°21' W 071°02'1 2.4
2018-Aug-14 09:00N 42°22' W 071°02'0 0.9
2018-Aug-14 08:59N 42°22' W 071°02'0 0.0
2018-Aug-14 08:30N 42°22' W 071°02'0 0.0
2018-Aug-14 08:00N 42°22' W 071°02'0 0.0
2018-Aug-14 07:30N 42°22' W 071°02'0 0.0
2018-Aug-14 07:00N 42°22' W 071°02'0 0.0
2018-Aug-14 06:30N 42°22' W 071°02'0 0.0
2018-Aug-14 06:00N 42°22' W 071°02'064.8
2018-Aug-14 06:00N 42°22' W 071°02'4 7.1
2018-Aug-14 05:30N 42°20' W 070°58'4 7.2
2018-Aug-14 05:01N 42°22' W 071°02'81111.4
2018-Aug-14 05:00N 42°23' W 070°51'816.9
2018-Aug-14 04:30N 42°22' W 071°02'9281.4
2018-Aug-14 04:29N 42°23' W 070°50'2 3.8
2018-Aug-14 04:00N 42°23' W 070°52'726177.1
2018-Aug-14 04:00N 42°22' W 071°02'4 7.3
2018-Aug-14 03:30N 42°20' W 070°57'4 7.3
2018-Aug-14 03:01N 42°22' W 071°02'0 0.0
2018-Aug-14 02:30N 42°22' W 071°02'064.8
2018-Aug-14 02:30N 42°22' W 071°02'0 0.0
2018-Aug-14 02:00N 42°22' W 071°02'0 0.0
2018-Aug-14 01:31N 42°22' W 071°02'0 2.7
2018-Aug-14 01:30N 42°22' W 071°02'0 0.0
2018-Aug-14 01:01N 42°22' W 071°02'0 0.0
2018-Aug-14 00:31N 42°22' W 071°02'0 0.0
2018-Aug-14 00:00N 42°22' W 071°02'066.7
2018-Aug-14 00:00N 42°22' W 071°02'0 0.0
2018-Aug-13 23:30N 42°22' W 071°02'0 0.0
2018-Aug-13 23:01N 42°22' W 071°02'0 4.6
2018-Aug-13 23:00N 42°22' W 071°02'0 0.0
2018-Aug-13 22:31N 42°22' W 071°02'064.8
2018-Aug-13 22:31N 42°22' W 071°02'0 0.0
2018-Aug-13 22:00N 42°22' W 071°02'064.8
2018-Aug-13 22:00N 42°22' W 071°02'0 0.0
2018-Aug-13 21:30N 42°22' W 071°02'0 0.0
2018-Aug-13 21:00N 42°22' W 071°02'064.8
2018-Aug-13 21:00N 42°22' W 071°02'1 2.5
2018-Aug-13 20:30N 42°21' W 071°01'14494.3
2018-Aug-13 20:30N 42°22' W 071°02'612.2
2018-Aug-13 20:00N 42°23' W 070°54'4 7.8
2018-Aug-13 19:30N 42°20' W 070°58'3 6.8
2018-Aug-13 19:00N 42°21' W 071°02'137.4
2018-Aug-13 18:59N 42°22' W 071°02'1 1.8
2018-Aug-13 18:31N 42°22' W 071°03'1107.4
2018-Aug-13 18:30N 42°22' W 071°02'0 0.0
2018-Aug-13 18:00N 42°22' W 071°02'016.0
2018-Aug-13 18:00N 42°22' W 071°02'0 0.0
2018-Aug-13 17:30N 42°22' W 071°02'0 0.0
2018-Aug-13 17:00N 42°22' W 071°02'9386.6
2018-Aug-13 16:59N 42°21' W 070°49'919.9
2018-Aug-13 16:31N 42°22' W 071°02'9375.3
2018-Aug-13 16:29N 42°20' W 070°50'1 2.8
2018-Aug-13 16:00N 42°21' W 070°49'1017194.1
2018-Aug-13 16:00N 42°22' W 071°02'0 0.0
2018-Aug-13 15:30N 42°22' W 071°02'0 0.0
2018-Aug-13 15:00N 42°22' W 071°02'519258.6
2018-Aug-13 15:00N 42°22' W 070°55'510.7
2018-Aug-13 14:30N 42°22' W 071°02'312211.9
2018-Aug-13 14:30N 42°20' W 070°58'2 3.3
2018-Aug-13 14:00N 42°21' W 071°00'2 3.7
2018-Aug-13 13:30N 42°22' W 071°02'026.9
2018-Aug-13 13:30N 42°22' W 071°02'0 0.0
2018-Aug-13 13:00N 42°22' W 071°02'0 0.0
2018-Aug-13 12:30N 42°22' W 071°02'064.8
2018-Aug-13 12:30N 42°22' W 071°02'0 0.0
2018-Aug-13 12:00N 42°22' W 071°02'064.8
2018-Aug-13 12:00N 42°22' W 071°02'1 2.7
2018-Aug-13 11:31N 42°23' W 071°03'1171.4
2018-Aug-13 11:30N 42°22' W 071°02'0 0.0
2018-Aug-13 11:00N 42°22' W 071°02'0 0.0
2018-Aug-13 10:30N 42°22' W 071°02'0 0.0
2018-Aug-13 10:01N 42°22' W 071°02'0 0.3
2018-Aug-13 09:58N 42°22' W 071°02'0 0.0
2018-Aug-13 09:30N 42°22' W 071°02'0 0.0
2018-Aug-13 09:00N 42°22' W 071°02'066.7
2018-Aug-13 09:00N 42°22' W 071°02'0 0.0
2018-Aug-13 08:30N 42°22' W 071°02'2 3.0
2018-Aug-13 08:00N 42°21' W 071°00'2 3.0
2018-Aug-13 07:30N 42°22' W 071°02'1019.2
2018-Aug-13 06:59N 42°23' W 070°49'101529.6
2018-Aug-13 06:59N 42°22' W 071°02'714.4
2018-Aug-13 06:30N 42°19' W 070°53'4 8.7
2018-Aug-13 06:00N 42°20' W 070°59'3 5.7
2018-Aug-13 05:30N 42°22' W 071°02'0 0.0
2018-Aug-13 05:00N 42°22' W 071°02'0 0.0
2018-Aug-13 05:00N 42°22' W 071°02'0 0.0
2018-Aug-13 04:30N 42°22' W 071°02'0 0.0
2018-Aug-13 04:30N 42°22' W 071°02'0 0.0
2018-Aug-13 04:00N 42°22' W 071°02'917.6
2018-Aug-13 03:30N 42°23' W 070°50'917.6
2018-Aug-13 03:00N 42°22' W 071°02'415411.2
2018-Aug-13 03:00N 42°21' W 070°56'3 6.7
2018-Aug-13 02:30N 42°21' W 071°01'1 2.8
2018-Aug-13 02:00N 42°22' W 071°02'0 0.0
2018-Aug-13 01:30N 42°22' W 071°02'043.2
2018-Aug-13 01:30N 42°22' W 071°02'0 0.0
2018-Aug-13 01:00N 42°22' W 071°02'064.8
2018-Aug-13 01:00N 42°22' W 071°02'0 0.0
2018-Aug-13 00:30N 42°22' W 071°02'0 0.0
2018-Aug-13 00:00N 42°22' W 071°02'064.8
2018-Aug-13 00:00N 42°22' W 071°02'0 0.0
2018-Aug-12 23:30N 42°22' W 071°02'0 1.1
2018-Aug-12 23:29N 42°22' W 071°02'3 6.1
2018-Aug-12 23:00N 42°20' W 070°58'310674.2
2018-Aug-12 23:00N 42°22' W 071°02'4 7.4
2018-Aug-12 22:30N 42°20' W 070°57'41020.1
2018-Aug-12 22:30N 42°22' W 071°02'612.0
2018-Aug-12 22:00N 42°22' W 070°54'4 7.3
2018-Aug-12 21:30N 42°23' W 070°49'101498.7
2018-Aug-12 21:30N 42°22' W 071°02'0 0.0
2018-Aug-12 21:00N 42°22' W 071°02'723984.0
2018-Aug-12 21:00N 42°22' W 070°53'713.3
2018-Aug-12 20:30N 42°21' W 071°02'085.8
2018-Aug-12 20:30N 42°22' W 071°02'0 0.0
2018-Aug-12 20:00N 42°22' W 071°02'0 1.1
2018-Aug-12 19:59N 42°22' W 071°02'0 0.0
2018-Aug-12 19:30N 42°22' W 071°02'0 0.0
2018-Aug-12 19:00N 42°22' W 071°02'0 0.0
2018-Aug-12 18:31N 42°22' W 071°02'0 1.3
2018-Aug-12 18:30N 42°22' W 071°02'0 0.0
2018-Aug-12 18:00N 42°22' W 071°02'064.8
2018-Aug-12 18:00N 42°22' W 071°02'0 0.0
2018-Aug-12 17:30N 42°22' W 071°02'0 1.0
2018-Aug-12 17:00N 42°21' W 071°02'01727.2
2018-Aug-12 17:00N 42°22' W 071°02'0 0.0
2018-Aug-12 16:30N 42°22' W 071°02'412947.1
2018-Aug-12 16:30N 42°20' W 070°58'3 5.1
2018-Aug-12 16:00N 42°18' W 070°55'612.4
2018-Aug-12 15:30N 42°22' W 071°02'31220.2
2018-Aug-12 15:30N 42°19' W 070°59'3 6.8
2018-Aug-12 15:00N 42°22' W 071°02'4592.6
2018-Aug-12 15:00N 42°18' W 071°03'5 9.4
2018-Aug-12 14:30N 42°20' W 070°57'5726.2
2018-Aug-12 14:30N 42°18' W 071°03'1020.5
2018-Aug-12 14:00N 42°24' W 070°51'101518.3
2018-Aug-12 14:00N 42°18' W 071°03'4 8.1
2018-Aug-12 13:31N 42°20' W 070°58'4423.9
2018-Aug-12 13:30N 42°18' W 071°03'4 7.6
2018-Aug-12 13:00N 42°22' W 071°02'611.8
2018-Aug-12 12:31N 42°18' W 070°56'39835.3
2018-Aug-12 12:31N 42°20' W 070°58'3 6.4
2018-Aug-12 12:00N 42°22' W 071°02'0 0.0
2018-Aug-12 11:30N 42°22' W 071°02'0 0.0
2018-Aug-12 11:00N 42°22' W 071°02'043.2
2018-Aug-12 11:00N 42°22' W 071°02'0 0.0
2018-Aug-12 10:30N 42°22' W 071°02'0 0.0
2018-Aug-12 10:00N 42°22' W 071°02'0 0.0
2018-Aug-12 09:31N 42°22' W 071°02'0 0.0
2018-Aug-12 09:00N 42°22' W 071°02'064.8
2018-Aug-12 09:00N 42°22' W 071°02'0 0.0
2018-Aug-12 08:30N 42°22' W 071°02'043.2
2018-Aug-12 08:30N 42°22' W 071°02'0 0.0
2018-Aug-12 08:00N 42°22' W 071°02'0 1.2
2018-Aug-12 07:59N 42°22' W 071°02'0 0.0
2018-Aug-12 07:30N 42°22' W 071°02'0 0.0
2018-Aug-12 07:00N 42°22' W 071°02'0 0.0
2018-Aug-12 06:30N 42°22' W 071°02'064.8
2018-Aug-12 06:30N 42°22' W 071°02'2 3.1
2018-Aug-12 05:59N 42°21' W 071°00'4 8.7
2018-Aug-12 05:30N 42°22' W 070°55'510.4
2018-Aug-12 05:00N 42°22' W 071°02'9755.4
2018-Aug-12 04:59N 42°24' W 070°50'612.4
2018-Aug-12 04:30N 42°20' W 070°57'413842.3
2018-Aug-12 04:30N 42°22' W 071°02'1 2.1
2018-Aug-12 04:00N 42°21' W 071°01'1 2.1
2018-Aug-12 03:30N 42°22' W 071°02'0 0.0
2018-Aug-12 03:00N 42°22' W 071°02'0 0.0
2018-Aug-12 02:30N 42°22' W 071°02'016.0
2018-Aug-12 02:30N 42°22' W 071°02'0 0.0
2018-Aug-12 02:00N 42°22' W 071°02'016.0
2018-Aug-12 02:00N 42°22' W 071°02'0 0.0
2018-Aug-12 01:30N 42°22' W 071°02'0 1.1
2018-Aug-12 01:30N 42°22' W 071°02'1 1.2
2018-Aug-12 01:00N 42°22' W 071°03'1123.0
2018-Aug-12 01:00N 42°22' W 071°02'0 0.4
2018-Aug-12 00:30N 42°22' W 071°02'0764.2
2018-Aug-12 00:30N 42°22' W 071°02'611.9
2018-Aug-12 00:01N 42°23' W 070°54'64236.7
2018-Aug-12 00:00N 42°22' W 071°02'4 8.5
2018-Aug-11 23:30N 42°21' W 070°56'45165.7
2018-Aug-11 23:30N 42°22' W 071°02'0 0.0
2018-Aug-11 23:00N 42°22' W 071°02'016.0
2018-Aug-11 23:00N 42°22' W 071°02'0 0.0
2018-Aug-11 22:30N 42°22' W 071°02'016.0
2018-Aug-11 22:30N 42°22' W 071°02'0 0.0
2018-Aug-11 22:00N 42°22' W 071°02'0 5.3
2018-Aug-11 22:00N 42°22' W 071°02'3 6.0
2018-Aug-11 21:30N 42°20' W 070°58'33598.8
2018-Aug-11 21:30N 42°22' W 071°02'0 0.0
2018-Aug-11 21:00N 42°22' W 071°02'51284.2
2018-Aug-11 21:00N 42°22' W 070°56'4 7.8
2018-Aug-11 20:30N 42°20' W 071°00'26163.9
2018-Aug-11 20:30N 42°22' W 071°02'0 0.0
2018-Aug-11 20:00N 42°22' W 071°02'0 0.0
2018-Aug-11 19:30N 42°22' W 071°02'0 3.4
2018-Aug-11 19:30N 42°22' W 071°02'0 0.0
2018-Aug-11 19:00N 42°22' W 071°02'0 0.0
2018-Aug-11 18:30N 42°22' W 071°02'0 0.0
2018-Aug-11 18:00N 42°22' W 071°02'13350.2
2018-Aug-11 18:00N 42°22' W 071°03'1 1.9
2018-Aug-11 17:30N 42°22' W 071°02'0 2.5
2018-Aug-11 17:30N 42°22' W 071°02'0 0.0
2018-Aug-11 17:00N 42°22' W 071°02'0 3.3
2018-Aug-11 17:00N 42°22' W 071°02'0 0.0
2018-Aug-11 16:30N 42°22' W 071°02'0 2.0
2018-Aug-11 16:30N 42°22' W 071°02'0 0.0
2018-Aug-11 16:00N 42°22' W 071°02'0 6.5
2018-Aug-11 16:00N 42°22' W 071°02'0 0.0
2018-Aug-11 15:30N 42°22' W 071°02'0 0.0
2018-Aug-11 15:00N 42°22' W 071°02'0 5.4
2018-Aug-11 15:00N 42°22' W 071°02'0 0.0
2018-Aug-11 14:30N 42°22' W 071°02'010.8
2018-Aug-11 14:30N 42°22' W 071°02'0 0.0
2018-Aug-11 14:00N 42°22' W 071°02'016.2
2018-Aug-11 14:00N 42°22' W 071°02'0 0.0
2018-Aug-11 13:30N 42°22' W 071°02'016.2
2018-Aug-11 13:30N 42°22' W 071°02'0 0.0
2018-Aug-11 13:00N 42°22' W 071°02'032.4
2018-Aug-11 13:00N 42°22' W 071°02'0 0.0
2018-Aug-11 12:30N 42°22' W 071°02'021.6
2018-Aug-11 12:30N 42°22' W 071°02'0 0.0
2018-Aug-11 12:00N 42°22' W 071°02'0 9.5
2018-Aug-11 12:00N 42°22' W 071°02'2 3.6
2018-Aug-11 11:30N 42°21' W 071°00'3 6.8
2018-Aug-11 11:00N 42°21' W 070°56'51835.3
2018-Aug-11 11:00N 42°22' W 071°02'0 0.0
2018-Aug-11 10:30N 42°22' W 071°02'71119.8
2018-Aug-11 10:30N 42°24' W 070°53'1 2.5
2018-Aug-11 10:00N 42°24' W 070°51'830251.0
2018-Aug-11 10:00N 42°22' W 071°02'3 6.9
2018-Aug-11 09:30N 42°20' W 070°58'33088.3
2018-Aug-11 09:30N 42°22' W 071°02'0 0.0
2018-Aug-11 09:00N 42°22' W 071°02'14527.1
2018-Aug-11 09:00N 42°21' W 071°01'1 2.5
2018-Aug-11 08:30N 42°22' W 071°02'0 0.0
2018-Aug-11 08:00N 42°22' W 071°02'0 0.0
2018-Aug-11 07:30N 42°22' W 071°02'0 6.5
2018-Aug-11 07:30N 42°22' W 071°02'0 0.0
2018-Aug-11 07:00N 42°22' W 071°02'043.2
2018-Aug-11 07:00N 42°22' W 071°02'0 0.0
2018-Aug-11 06:30N 42°22' W 071°02'021.6
2018-Aug-11 06:30N 42°22' W 071°02'0 0.0
2018-Aug-11 06:00N 42°22' W 071°02'0 4.3
2018-Aug-11 06:00N 42°22' W 071°02'0 0.0
2018-Aug-11 05:30N 42°22' W 071°02'0 5.9
2018-Aug-11 05:30N 42°22' W 071°02'0 0.0
2018-Aug-11 05:00N 42°22' W 071°02'0 5.4
2018-Aug-11 05:00N 42°22' W 071°02'0 0.0
2018-Aug-11 04:30N 42°22' W 071°02'0 6.5
2018-Aug-11 04:30N 42°22' W 071°02'0 0.0
2018-Aug-11 04:00N 42°22' W 071°02'0 0.0
2018-Aug-11 03:30N 42°22' W 071°02'0 4.8
2018-Aug-11 03:30N 42°22' W 071°02'0 0.0
2018-Aug-11 03:00N 42°22' W 071°02'0 1.3
2018-Aug-11 03:00N 42°22' W 071°02'0 0.0
2018-Aug-11 02:30N 42°22' W 071°02'0 0.0
2018-Aug-11 02:00N 42°22' W 071°02'0 0.0
2018-Aug-11 01:30N 42°22' W 071°02'0 5.4
2018-Aug-11 01:30N 42°22' W 071°02'0 0.0
2018-Aug-11 01:01N 42°22' W 071°02'0 9.3
2018-Aug-11 01:00N 42°22' W 071°02'0 0.0
2018-Aug-11 00:30N 42°22' W 071°02'064.8
2018-Aug-11 00:30N 42°22' W 071°02'0 0.0
2018-Aug-11 00:00N 42°22' W 071°02'064.8
2018-Aug-11 00:00N 42°22' W 071°02'0 0.0
2018-Aug-10 23:30N 42°22' W 071°02'0 0.0
2018-Aug-10 23:01N 42°22' W 071°02'0 0.0
2018-Aug-10 22:30N 42°22' W 071°02'0 0.0
2018-Aug-10 22:01N 42°22' W 071°02'064.8
2018-Aug-10 22:00N 42°22' W 071°02'1 2.4
2018-Aug-10 21:30N 42°21' W 071°02'714.2
2018-Aug-10 21:00N 42°23' W 070°53'73416.8
2018-Aug-10 21:00N 42°22' W 071°02'3 6.4
2018-Aug-10 20:30N 42°20' W 070°58'3 6.1
2018-Aug-10 20:01N 42°22' W 071°02'0961.2
2018-Aug-10 20:01N 42°22' W 071°02'0 0.0
2018-Aug-10 19:30N 42°22' W 071°02'0 0.0
2018-Aug-10 19:00N 42°22' W 071°02'0 0.0
2018-Aug-10 18:30N 42°22' W 071°02'064.8
2018-Aug-10 18:30N 42°22' W 071°02'0 0.0
2018-Aug-10 18:00N 42°22' W 071°02'0 0.0
2018-Aug-10 17:31N 42°22' W 071°02'0 0.0
2018-Aug-10 17:00N 42°22' W 071°02'0 0.0
2018-Aug-10 16:30N 42°22' W 071°02'0 0.0
2018-Aug-10 16:00N 42°22' W 071°02'043.2
2018-Aug-10 16:00N 42°22' W 071°02'0 0.0
2018-Aug-10 15:30N 42°22' W 071°02'0 0.0
2018-Aug-10 15:00N 42°22' W 071°02'0 7.2
2018-Aug-10 15:00N 42°22' W 071°02'0 0.0
2018-Aug-10 14:30N 42°22' W 071°02'064.8
2018-Aug-10 14:30N 42°22' W 071°02'0 0.0
2018-Aug-10 14:00N 42°22' W 071°02'064.8
2018-Aug-10 14:00N 42°22' W 071°02'0 0.0
2018-Aug-10 13:31N 42°22' W 071°02'064.8
2018-Aug-10 13:31N 42°22' W 071°02'0 0.0
2018-Aug-10 13:01N 42°22' W 071°02'0 0.0
2018-Aug-10 12:30N 42°22' W 071°02'0 0.0
2018-Aug-10 12:00N 42°22' W 071°02'0 0.0
2018-Aug-10 11:30N 42°22' W 071°02'010.8
2018-Aug-10 11:30N 42°22' W 071°02'0 0.0
2018-Aug-10 11:01N 42°22' W 071°02'4 7.9
2018-Aug-10 10:30N 42°20' W 070°57'713.5
2018-Aug-10 10:00N 42°24' W 070°49'104357.4
2018-Aug-10 10:00N 42°22' W 071°02'4 7.4
2018-Aug-10 09:30N 42°20' W 070°57'4 7.3
2018-Aug-10 09:00N 42°22' W 071°02'010.8
2018-Aug-10 09:00N 42°22' W 071°02'0 0.0
2018-Aug-10 08:30N 42°22' W 071°02'0 4.1
2018-Aug-10 08:30N 42°22' W 071°02'0 0.0
2018-Aug-10 08:00N 42°22' W 071°02'0 7.2
2018-Aug-10 08:00N 42°22' W 071°02'0 0.0
2018-Aug-10 07:30N 42°22' W 071°02'021.6
2018-Aug-10 07:30N 42°22' W 071°02'0 0.0
2018-Aug-10 07:00N 42°22' W 071°02'0 5.4
2018-Aug-10 07:00N 42°22' W 071°02'0 0.0
2018-Aug-10 06:30N 42°22' W 071°02'0 6.2
2018-Aug-10 06:30N 42°22' W 071°02'0 0.0
2018-Aug-10 06:00N 42°22' W 071°02'064.8
2018-Aug-10 06:00N 42°22' W 071°02'0 0.0
2018-Aug-10 05:30N 42°22' W 071°02'0 9.3
2018-Aug-10 05:30N 42°22' W 071°02'0 0.0
2018-Aug-10 05:00N 42°22' W 071°02'0 2.1
2018-Aug-10 05:00N 42°22' W 071°02'0 0.0
2018-Aug-10 04:30N 42°22' W 071°02'010.8
2018-Aug-10 04:30N 42°22' W 071°02'0 0.0
2018-Aug-10 04:00N 42°22' W 071°02'0 0.0
2018-Aug-10 03:30N 42°22' W 071°02'0 0.0
2018-Aug-10 03:00N 42°22' W 071°02'0 3.1
2018-Aug-10 03:00N 42°22' W 071°02'0 0.0
2018-Aug-10 02:30N 42°22' W 071°02'0 0.0
2018-Aug-10 02:00N 42°22' W 071°02'0 0.0
2018-Aug-10 01:30N 42°22' W 071°02'0 0.0
2018-Aug-10 01:00N 42°22' W 071°02'0 5.4
2018-Aug-10 01:00N 42°22' W 071°02'0 0.0
2018-Aug-10 00:30N 42°22' W 071°02'0 0.0
2018-Aug-10 00:00N 42°22' W 071°02'010.8
2018-Aug-10 00:00N 42°22' W 071°02'0 0.0
2018-Aug-09 23:30N 42°22' W 071°02'0 0.0
2018-Aug-09 23:00N 42°22' W 071°02'043.2
2018-Aug-09 23:00N 42°22' W 071°02'0 0.0
2018-Aug-09 22:31N 42°22' W 071°02'043.2
2018-Aug-09 22:31N 42°22' W 071°02'0 0.0
2018-Aug-09 22:00N 42°22' W 071°02'0 0.0
2018-Aug-09 21:30N 42°22' W 071°02'043.2
2018-Aug-09 21:30N 42°22' W 071°02'0 0.0
2018-Aug-09 21:00N 42°22' W 071°02'0 0.0
2018-Aug-09 20:31N 42°22' W 071°02'0 0.0
2018-Aug-09 20:01N 42°22' W 071°02'0 0.0
2018-Aug-09 19:30N 42°22' W 071°02'064.8
2018-Aug-09 19:30N 42°22' W 071°02'0 0.0
2018-Aug-09 19:00N 42°22' W 071°02'0 0.0
2018-Aug-09 18:30N 42°22' W 071°02'064.8
2018-Aug-09 18:30N 42°22' W 071°02'0 0.0
2018-Aug-09 18:00N 42°22' W 071°02'0 0.0
2018-Aug-09 17:30N 42°22' W 071°02'0 2.9
2018-Aug-09 17:30N 42°22' W 071°02'0 0.0
2018-Aug-09 17:00N 42°22' W 071°02'064.8
2018-Aug-09 17:00N 42°22' W 071°02'0 0.0
2018-Aug-09 16:30N 42°22' W 071°02'064.8
2018-Aug-09 16:30N 42°22' W 071°02'0 0.0
2018-Aug-09 16:00N 42°22' W 071°02'043.2
2018-Aug-09 16:00N 42°22' W 071°02'0 0.0
2018-Aug-09 15:30N 42°22' W 071°02'064.8
2018-Aug-09 15:30N 42°22' W 071°02'0 0.0
2018-Aug-09 15:00N 42°22' W 071°02'0 0.0
2018-Aug-09 14:30N 42°22' W 071°02'0 0.0
2018-Aug-09 14:01N 42°22' W 071°02'064.8
2018-Aug-09 14:00N 42°22' W 071°02'0 0.0
2018-Aug-09 13:30N 42°22' W 071°02'0 0.0
2018-Aug-09 13:01N 42°22' W 071°02'0 4.6
2018-Aug-09 13:00N 42°22' W 071°02'0 0.0
2018-Aug-09 12:30N 42°22' W 071°02'0 4.3
2018-Aug-09 12:30N 42°22' W 071°02'0 0.0
2018-Aug-09 12:00N 42°22' W 071°02'0 0.0
2018-Aug-09 11:30N 42°22' W 071°02'0 0.0
2018-Aug-09 11:00N 42°22' W 071°02'010.8
2018-Aug-09 11:00N 42°22' W 071°02'0 0.0
2018-Aug-09 10:31N 42°22' W 071°02'0 0.0
2018-Aug-09 10:00N 42°22' W 071°02'0 0.0
2018-Aug-09 09:30N 42°22' W 071°02'0 0.0
2018-Aug-09 09:00N 42°22' W 071°02'0 0.0
2018-Aug-09 08:30N 42°22' W 071°02'0 0.0
2018-Aug-09 08:00N 42°22' W 071°02'064.8
2018-Aug-09 08:00N 42°22' W 071°02'0 0.0
2018-Aug-09 07:30N 42°22' W 071°02'0 2.0
2018-Aug-09 07:30N 42°22' W 071°02'0 0.0
2018-Aug-09 07:01N 42°22' W 071°02'0 0.0
2018-Aug-09 06:30N 42°22' W 071°02'0 0.0
2018-Aug-09 06:00N 42°22' W 071°02'0 0.0
2018-Aug-09 05:30N 42°22' W 071°02'0 0.0
2018-Aug-09 05:01N 42°22' W 071°02'0 2.2
2018-Aug-09 05:00N 42°22' W 071°02'0 0.0
2018-Aug-09 04:30N 42°22' W 071°02'0 0.0
2018-Aug-09 04:00N 42°22' W 071°02'0 0.0
2018-Aug-09 03:30N 42°22' W 071°02'032.4
2018-Aug-09 03:30N 42°22' W 071°02'0 0.0
2018-Aug-09 03:00N 42°22' W 071°02'064.8
2018-Aug-09 03:00N 42°22' W 071°02'0 0.0
2018-Aug-09 02:30N 42°22' W 071°02'0 0.0
2018-Aug-09 02:00N 42°22' W 071°02'010.8
2018-Aug-09 02:00N 42°22' W 071°02'0 0.3
2018-Aug-09 01:30N 42°22' W 071°02'1 1.5
2018-Aug-09 01:00N 42°22' W 071°03'1362.7
2018-Aug-09 01:00N 42°22' W 071°02'1 1.9
2018-Aug-09 00:31N 42°22' W 071°03'1 1.9
2018-Aug-09 00:00N 42°22' W 071°02'016.0
2018-Aug-09 00:00N 42°22' W 071°02'0 0.0
2018-Aug-08 23:30N 42°22' W 071°02'0 0.0
2018-Aug-08 23:00N 42°22' W 071°02'026.9
2018-Aug-08 23:00N 42°22' W 071°02'0 0.0
2018-Aug-08 22:30N 42°22' W 071°02'0 4.0
2018-Aug-08 22:30N 42°22' W 071°02'0 0.0
2018-Aug-08 22:00N 42°22' W 071°02'12961.3
2018-Aug-08 22:00N 42°21' W 071°01'612.6
2018-Aug-08 21:31N 42°22' W 070°53'7441.5
2018-Aug-08 21:30N 42°22' W 071°02'5 9.3
2018-Aug-08 21:00N 42°21' W 070°56'53255.1
2018-Aug-08 21:00N 42°22' W 071°02'3 5.9
2018-Aug-08 20:30N 42°20' W 070°58'310586.3
2018-Aug-08 20:30N 42°22' W 071°02'0 0.0
2018-Aug-08 20:00N 42°22' W 071°02'310636.6
2018-Aug-08 20:00N 42°20' W 070°58'3 5.9
2018-Aug-08 19:30N 42°22' W 071°02'0 0.0
2018-Aug-08 19:00N 42°22' W 071°02'14280.4
2018-Aug-08 19:00N 42°21' W 071°02'1 2.4
2018-Aug-08 18:30N 42°22' W 071°02'021.6
2018-Aug-08 18:30N 42°22' W 071°02'0 0.0
2018-Aug-08 18:00N 42°22' W 071°02'064.8
2018-Aug-08 18:00N 42°22' W 071°02'0 0.0
2018-Aug-08 17:30N 42°22' W 071°02'021.6
2018-Aug-08 17:30N 42°22' W 071°02'0 0.0
2018-Aug-08 17:00N 42°22' W 071°02'064.8
2018-Aug-08 17:00N 42°22' W 071°02'0 0.0
2018-Aug-08 16:30N 42°22' W 071°02'064.8
2018-Aug-08 16:30N 42°22' W 071°02'0 0.0
2018-Aug-08 16:00N 42°22' W 071°02'12072.4
2018-Aug-08 16:00N 42°22' W 071°03'1 1.6
2018-Aug-08 15:30N 42°23' W 071°03'1 2.3
2018-Aug-08 15:00N 42°22' W 071°02'311179.0
2018-Aug-08 15:00N 42°20' W 070°58'1 2.2
2018-Aug-08 14:30N 42°21' W 070°57'4 7.5
2018-Aug-08 14:00N 42°21' W 071°02'0 1.0
2018-Aug-08 13:30N 42°22' W 071°02'0 0.0
2018-Aug-08 13:00N 42°22' W 071°02'0 5.0
2018-Aug-08 13:00N 42°22' W 071°02'0 0.0
2018-Aug-08 12:30N 42°22' W 071°02'064.8
2018-Aug-08 12:30N 42°22' W 071°02'0 0.0
2018-Aug-08 12:00N 42°22' W 071°02'0 0.0
2018-Aug-08 11:30N 42°22' W 071°02'0 0.0
2018-Aug-08 11:00N 42°22' W 071°02'0 0.0
2018-Aug-08 10:31N 42°22' W 071°02'0 0.0
2018-Aug-08 10:00N 42°22' W 071°02'064.8
2018-Aug-08 10:00N 42°22' W 071°02'0 0.0
2018-Aug-08 09:30N 42°22' W 071°02'0 0.0
2018-Aug-08 09:00N 42°22' W 071°02'0 0.0
2018-Aug-08 08:30N 42°22' W 071°02'043.2
2018-Aug-08 08:30N 42°22' W 071°02'0 0.0
2018-Aug-08 08:00N 42°22' W 071°02'0 0.0
2018-Aug-08 07:30N 42°22' W 071°02'12925.3
2018-Aug-08 07:30N 42°21' W 071°01'1 1.6
2018-Aug-08 07:00N 42°22' W 071°02'620294.1
2018-Aug-08 07:00N 42°19' W 070°56'4 8.8
2018-Aug-08 06:31N 42°23' W 070°53'5 9.0
2018-Aug-08 06:00N 42°20' W 070°59'3 5.6
2018-Aug-08 05:30N 42°22' W 071°02'064.8
2018-Aug-08 05:30N 42°22' W 071°02'0 0.0
2018-Aug-08 05:00N 42°22' W 071°02'0 0.0
2018-Aug-08 04:30N 42°22' W 071°02'0 0.0
2018-Aug-08 04:00N 42°22' W 071°02'0 0.0
2018-Aug-08 03:30N 42°22' W 071°02'0 0.0
2018-Aug-08 03:00N 42°22' W 071°02'064.8
2018-Aug-08 03:00N 42°22' W 071°02'3 6.3
2018-Aug-08 02:31N 42°20' W 070°58'0 0.2
2018-Aug-08 02:00N 42°20' W 070°58'0 0.2
2018-Aug-08 01:30N 42°20' W 070°58'3 6.2
2018-Aug-08 01:00N 42°18' W 070°55'4 7.7
2018-Aug-08 00:30N 42°20' W 070°59'28114.6
2018-Aug-08 00:30N 42°22' W 071°02'611.6
2018-Aug-08 00:00N 42°23' W 070°54'62069.1
2018-Aug-08 00:00N 42°22' W 071°02'2 3.5
2018-Aug-07 23:31N 42°20' W 071°00'2365.1
2018-Aug-07 23:30N 42°22' W 071°02'0 0.0
2018-Aug-07 23:00N 42°22' W 071°02'0107.9
2018-Aug-07 23:00N 42°21' W 071°02'0 0.8
2018-Aug-07 22:30N 42°22' W 071°02'0 0.0
2018-Aug-07 22:00N 42°22' W 071°02'0 8.1
2018-Aug-07 22:00N 42°22' W 071°02'0 0.0
2018-Aug-07 21:31N 42°22' W 071°02'0 0.0
2018-Aug-07 21:00N 42°22' W 071°02'0 0.0
2018-Aug-07 20:31N 42°22' W 071°02'043.2
2018-Aug-07 20:30N 42°22' W 071°02'0 0.0
2018-Aug-07 20:00N 42°22' W 071°02'0 0.0
2018-Aug-07 19:30N 42°22' W 071°02'1 1.2
2018-Aug-07 19:00N 42°22' W 071°03'1 1.2
2018-Aug-07 18:30N 42°22' W 071°02'815.8
2018-Aug-07 18:00N 42°20' W 070°52'87109.1
2018-Aug-07 18:00N 42°22' W 071°02'611.5
2018-Aug-07 17:30N 42°19' W 070°55'620685.2
2018-Aug-07 17:30N 42°22' W 071°02'0 0.0
2018-Aug-07 17:01N 42°22' W 071°02'0 0.0
2018-Aug-07 16:30N 42°22' W 071°02'0 0.0
2018-Aug-07 16:00N 42°22' W 071°02'0 0.0
2018-Aug-07 15:30N 42°22' W 071°02'0 0.0
2018-Aug-07 15:01N 42°22' W 071°02'0 1.1
2018-Aug-07 15:00N 42°22' W 071°02'0 0.0
2018-Aug-07 14:30N 42°22' W 071°02'623234.4
2018-Aug-07 14:30N 42°19' W 070°54'612.9
2018-Aug-07 14:00N 42°22' W 071°02'816.3
2018-Aug-07 13:30N 42°20' W 070°51'8639.5
2018-Aug-07 13:30N 42°22' W 071°02'613.2
2018-Aug-07 13:00N 42°17' W 070°56'612.9
2018-Aug-07 12:30N 42°22' W 071°02'827130.6
2018-Aug-07 12:30N 42°15' W 070°57'510.3
2018-Aug-07 12:00N 42°20' W 070°60'2 4.8
2018-Aug-07 11:30N 42°22' W 071°02'0 0.0
2018-Aug-07 11:00N 42°22' W 071°02'0 0.0
2018-Aug-07 10:30N 42°22' W 071°02'0 0.0
2018-Aug-07 10:00N 42°22' W 071°02'023.7
2018-Aug-07 10:00N 42°22' W 071°02'510.1
2018-Aug-07 09:30N 42°22' W 070°55'51795.6
2018-Aug-07 09:30N 42°22' W 071°02'1019.7
2018-Aug-07 09:01N 42°24' W 070°49'611.5
2018-Aug-07 08:30N 42°21' W 070°56'4 7.5
2018-Aug-07 08:00N 42°21' W 071°01'713.9
2018-Aug-07 07:30N 42°23' W 070°52'725864.2
2018-Aug-07 07:30N 42°22' W 071°02'510.6
2018-Aug-07 07:00N 42°22' W 070°55'510.6
2018-Aug-07 06:30N 42°22' W 071°02'0 0.0
2018-Aug-07 06:00N 42°22' W 071°02'0 0.0
2018-Aug-07 05:30N 42°22' W 071°02'064.8
2018-Aug-07 05:30N 42°22' W 071°02'0 0.0
2018-Aug-07 05:00N 42°22' W 071°02'0 0.0
2018-Aug-07 04:30N 42°22' W 071°02'064.8
2018-Aug-07 04:30N 42°22' W 071°02'0 0.0
2018-Aug-07 04:00N 42°22' W 071°02'0 0.0
2018-Aug-07 03:30N 42°22' W 071°02'064.8
2018-Aug-07 03:30N 42°22' W 071°02'0 0.0
2018-Aug-07 03:00N 42°22' W 071°02'2 3.3
2018-Aug-07 02:31N 42°23' W 071°03'2641.1
2018-Aug-07 02:30N 42°22' W 071°02'2 3.6
2018-Aug-07 02:00N 42°23' W 071°03'2532.6
2018-Aug-07 02:00N 42°22' W 071°02'2 4.2
2018-Aug-07 01:31N 42°20' W 070°60'2 4.2
2018-Aug-07 01:00N 42°22' W 071°02'519707.4
2018-Aug-07 01:00N 42°22' W 070°54'4 7.9
2018-Aug-07 00:31N 42°24' W 070°50'98327.0
2018-Aug-07 00:30N 42°22' W 071°02'0 0.0
2018-Aug-07 00:00N 42°22' W 071°02'6679.5
2018-Aug-07 00:00N 42°22' W 070°53'611.7
2018-Aug-06 23:30N 42°21' W 071°01'13428.3
2018-Aug-06 23:30N 42°22' W 071°02'4 8.6
2018-Aug-06 23:00N 42°21' W 070°56'1 1.6
2018-Aug-06 22:30N 42°20' W 070°57'4 7.9
2018-Aug-06 22:00N 42°22' W 071°02'1 2.4
2018-Aug-06 21:30N 42°21' W 071°01'14412.9
2018-Aug-06 21:30N 42°22' W 071°02'0 0.0
2018-Aug-06 21:00N 42°22' W 071°02'0 0.0
2018-Aug-06 20:30N 42°22' W 071°02'064.8
2018-Aug-06 20:30N 42°22' W 071°02'0 0.0
2018-Aug-06 20:01N 42°22' W 071°02'0 0.0
2018-Aug-06 19:30N 42°22' W 071°02'0 0.0
2018-Aug-06 19:00N 42°22' W 071°02'043.2
2018-Aug-06 19:00N 42°22' W 071°02'0 0.0
2018-Aug-06 18:30N 42°22' W 071°02'021.6
2018-Aug-06 18:30N 42°22' W 071°02'0 0.0
2018-Aug-06 18:00N 42°22' W 071°02'0 0.0
2018-Aug-06 17:30N 42°22' W 071°02'064.8
2018-Aug-06 17:30N 42°22' W 071°02'0 0.0
2018-Aug-06 17:00N 42°22' W 071°02'0 0.0
2018-Aug-06 16:31N 42°22' W 071°02'0 7.2
2018-Aug-06 16:30N 42°22' W 071°02'0 0.0
2018-Aug-06 16:00N 42°22' W 071°02'021.6
2018-Aug-06 16:00N 42°22' W 071°02'0 0.0
2018-Aug-06 15:31N 42°22' W 071°02'016.2
2018-Aug-06 15:30N 42°22' W 071°02'0 0.0
2018-Aug-06 15:00N 42°22' W 071°02'1 2.5
2018-Aug-06 14:30N 42°23' W 071°03'1548.2
2018-Aug-06 14:30N 42°22' W 071°02'1 2.6
2018-Aug-06 14:01N 42°23' W 071°03'1333.5
2018-Aug-06 14:00N 42°22' W 071°02'0 1.0
2018-Aug-06 13:30N 42°21' W 071°02'0 1.0
2018-Aug-06 13:00N 42°22' W 071°02'78324.2
2018-Aug-06 13:00N 42°19' W 070°53'5 9.1
2018-Aug-06 12:30N 42°20' W 070°59'39336.7
2018-Aug-06 12:30N 42°22' W 071°02'1 1.7
2018-Aug-06 12:00N 42°21' W 071°01'612.4
2018-Aug-06 11:31N 42°16' W 070°56'72536.8
2018-Aug-06 11:30N 42°22' W 071°02'611.9
2018-Aug-06 11:01N 42°18' W 070°55'611.8
2018-Aug-06 10:30N 42°22' W 071°02'915492.1
2018-Aug-06 10:30N 42°23' W 070°50'3 5.3
2018-Aug-06 10:00N 42°22' W 070°54'611.6
2018-Aug-06 09:30N 42°21' W 071°01'4 8.0
2018-Aug-06 09:00N 42°21' W 070°56'5 9.1
2018-Aug-06 08:31N 42°22' W 071°02'  
Track history (hours):
 
Tides and Currents Weather Stations Pressure Air Temp Water Temp Dewpoint Dewpoint Depression Visibility Wind Speed Wind Dir Waves Ship Positions

Boston Pilot Mystic

Last reported at 2018-Aug-16 08:30 UTC. Time now 2018-Aug-16 08:44 UTC.
Position N 42°22' W 071°02'.

Length 16 m; draft 1.5 m.

Type: Pilot. MMSI: 367029020.

Date/timePositionNaut miles runAvg speedWind from/ knotsBaromVisibWave heightAir tempDewpointWater temp
2018-Aug-16 08:30N 42°22' W 071°02'0 0.0
2018-Aug-16 08:00N 42°22' W 071°02'0 0.0
2018-Aug-16 07:30N 42°22' W 071°02'0 0.0
2018-Aug-16 07:00N 42°22' W 071°02'0 0.0
2018-Aug-16 06:30N 42°22' W 071°02'0 0.0
2018-Aug-16 06:00N 42°22' W 071°02'0 0.0
2018-Aug-16 05:30N 42°22' W 071°02'206683.1
2018-Aug-16 05:30N 42°12' W 070°37'1633.2
2018-Aug-16 05:00N 42°20' W 070°57'612.9
2018-Aug-16 04:30N 42°19' W 070°48'63692.5
2018-Aug-16 04:30N 42°21' W 070°56'2 4.5
2018-Aug-16 04:00N 42°19' W 070°54'519786.8
2018-Aug-16 04:00N 42°21' W 071°01'1 1.4
2018-Aug-16 03:30N 42°22' W 071°02'12571.9
2018-Aug-16 03:30N 42°21' W 071°01'1 2.9
2018-Aug-16 03:00N 42°22' W 071°02'0 0.0
2018-Aug-16 02:30N 42°22' W 071°02'021.6
2018-Aug-16 02:30N 42°22' W 071°02'0 0.0
2018-Aug-16 02:00N 42°22' W 071°02'5520.5
2018-Aug-16 02:00N 42°21' W 070°55'5 9.8
2018-Aug-16 01:30N 42°22' W 071°02'415548.1
2018-Aug-16 01:30N 42°21' W 070°56'4 7.0
2018-Aug-16 01:00N 42°21' W 071°01'1324.5
2018-Aug-16 01:00N 42°22' W 071°02'0 0.0
2018-Aug-16 00:30N 42°22' W 071°02'0 0.0
2018-Aug-16 00:00N 42°22' W 071°02'013.3
2018-Aug-16 00:00N 42°22' W 071°02'0 0.0
2018-Aug-15 23:30N 42°22' W 071°02'0 0.0
2018-Aug-15 23:00N 42°22' W 071°02'0 0.0
2018-Aug-15 22:30N 42°22' W 071°02'0 0.0
2018-Aug-15 22:00N 42°22' W 071°02'064.8
2018-Aug-15 22:00N 42°22' W 071°02'4 8.7
2018-Aug-15 21:30N 42°19' W 070°58'41569.1
2018-Aug-15 21:30N 42°22' W 071°02'2 5.0
2018-Aug-15 21:00N 42°20' W 070°60'21792.6
2018-Aug-15 21:00N 42°22' W 071°02'3 5.7
2018-Aug-15 20:31N 42°20' W 070°59'35106.9
2018-Aug-15 20:30N 42°22' W 071°02'5 9.6
2018-Aug-15 20:00N 42°22' W 070°55'5 9.7
2018-Aug-15 19:30N 42°22' W 071°02'189.3
2018-Aug-15 19:30N 42°21' W 071°02'1 1.1
2018-Aug-15 19:01N 42°22' W 071°02'11204.0
2018-Aug-15 19:00N 42°23' W 071°03'1 2.7
2018-Aug-15 18:30N 42°22' W 071°02'0 2.7
2018-Aug-15 18:30N 42°22' W 071°02'2 3.1
2018-Aug-15 18:00N 42°21' W 071°00'25575.2
2018-Aug-15 18:00N 42°22' W 071°02'612.0
2018-Aug-15 17:30N 42°21' W 070°54'6937.9
2018-Aug-15 17:30N 42°22' W 071°02'0 0.0
2018-Aug-15 17:00N 42°22' W 071°02'11331.0
2018-Aug-15 16:58N 42°21' W 070°47'510.7
2018-Aug-15 16:30N 42°21' W 070°54'621376.1
2018-Aug-15 16:30N 42°22' W 071°02'0 0.1
2018-Aug-15 16:00N 42°22' W 071°02'5 9.2
2018-Aug-15 15:31N 42°21' W 070°56'5 9.2
2018-Aug-15 15:00N 42°22' W 071°02'5537.1
2018-Aug-15 15:00N 42°22' W 070°55'4 8.4
2018-Aug-15 14:30N 42°21' W 071°01'1 2.4
2018-Aug-15 14:00N 42°22' W 071°02'0 0.8
2018-Aug-15 13:59N 42°22' W 071°02'0 0.0
2018-Aug-15 13:30N 42°22' W 071°02'0 0.0
2018-Aug-15 13:00N 42°22' W 071°02'0 0.0
2018-Aug-15 12:30N 42°22' W 071°02'0 0.0
2018-Aug-15 12:00N 42°22' W 071°02'0 0.0
2018-Aug-15 11:30N 42°22' W 071°02'0 0.0
2018-Aug-15 11:00N 42°22' W 071°02'0 0.0
2018-Aug-15 10:30N 42°22' W 071°02'1 2.9
2018-Aug-15 10:00N 42°23' W 071°03'11708.4
2018-Aug-15 10:00N 42°22' W 071°02'0 0.0
2018-Aug-15 09:30N 42°22' W 071°02'0 1.4
2018-Aug-15 09:30N 42°22' W 071°02'0 0.0
2018-Aug-15 09:00N 42°22' W 071°02'016.0
2018-Aug-15 09:00N 42°22' W 071°02'4 7.3
2018-Aug-15 08:30N 42°20' W 070°57'413134.4
2018-Aug-15 08:30N 42°22' W 071°02'918.1
2018-Aug-15 08:00N 42°24' W 070°50'910803.4
2018-Aug-15 08:00N 42°22' W 071°02'612.9
2018-Aug-15 07:30N 42°22' W 070°53'612.8
2018-Aug-15 07:00N 42°22' W 071°02'61230.0
2018-Aug-15 07:00N 42°22' W 070°53'613.1
2018-Aug-15 06:30N 42°22' W 071°02'7213.6
2018-Aug-15 06:28N 42°22' W 070°53'0 0.5
2018-Aug-15 06:01N 42°22' W 070°53'71313.1
2018-Aug-15 06:00N 42°22' W 071°02'0 0.0
2018-Aug-15 05:31N 42°22' W 071°02'712845.1
2018-Aug-15 05:31N 42°22' W 070°52'2 4.1
2018-Aug-15 05:00N 42°24' W 070°50'931285.8
2018-Aug-15 05:00N 42°22' W 071°02'0 0.0
2018-Aug-15 04:31N 42°22' W 071°02'7103.4
2018-Aug-15 04:26N 42°22' W 070°52'716.3
2018-Aug-15 04:01N 42°22' W 071°02'76373.7
2018-Aug-15 04:00N 42°22' W 070°52'1 1.4
2018-Aug-15 03:30N 42°23' W 070°53'72055.1
2018-Aug-15 03:30N 42°22' W 071°02'0 0.0
2018-Aug-15 03:00N 42°22' W 071°02'416159.6
2018-Aug-15 03:00N 42°21' W 070°56'4 9.0
2018-Aug-15 02:30N 42°22' W 071°02'31907.2
2018-Aug-15 02:30N 42°20' W 070°59'3 5.3
2018-Aug-15 02:00N 42°22' W 071°02'0 0.0
2018-Aug-15 01:30N 42°22' W 071°02'0 0.0
2018-Aug-15 01:00N 42°22' W 071°02'0 2.8
2018-Aug-15 01:00N 42°22' W 071°02'0 0.0
2018-Aug-15 00:30N 42°22' W 071°02'066.7
2018-Aug-15 00:30N 42°22' W 071°02'0 0.0
2018-Aug-15 00:00N 42°22' W 071°02'0 2.8
2018-Aug-15 00:00N 42°22' W 071°02'0 0.0
2018-Aug-14 23:30N 42°22' W 071°02'0 0.0
2018-Aug-14 23:00N 42°22' W 071°02'0 2.0
2018-Aug-14 23:00N 42°22' W 071°02'0 0.0
2018-Aug-14 22:30N 42°22' W 071°02'1304.3
2018-Aug-14 22:30N 42°21' W 071°01'1 1.7
2018-Aug-14 22:00N 42°22' W 071°02'2103.5
2018-Aug-14 21:59N 42°21' W 071°00'2 3.4
2018-Aug-14 21:30N 42°22' W 071°02'0 0.0
2018-Aug-14 21:00N 42°22' W 071°02'0 0.0
2018-Aug-14 20:30N 42°22' W 071°02'016.0
2018-Aug-14 20:30N 42°22' W 071°02'0 0.0
2018-Aug-14 20:00N 42°22' W 071°02'0 5.3
2018-Aug-14 20:00N 42°22' W 071°02'0 0.0
2018-Aug-14 19:30N 42°22' W 071°02'0 0.0
2018-Aug-14 19:00N 42°22' W 071°02'0 0.0
2018-Aug-14 18:31N 42°22' W 071°02'0 0.4
2018-Aug-14 18:30N 42°22' W 071°02'0 0.0
2018-Aug-14 18:00N 42°22' W 071°02'0 0.5
2018-Aug-14 17:59N 42°22' W 071°02'0 0.0
2018-Aug-14 17:30N 42°22' W 071°02'39504.9
2018-Aug-14 17:30N 42°20' W 070°59'3 5.3
2018-Aug-14 17:00N 42°22' W 071°02'92124.2
2018-Aug-14 17:00N 42°20' W 070°50'917.9
2018-Aug-14 16:30N 42°22' W 071°02'9317.7
2018-Aug-14 16:29N 42°20' W 070°50'919.3
2018-Aug-14 16:00N 42°22' W 071°02'11819.8
2018-Aug-14 16:00N 42°21' W 070°47'3 7.0
2018-Aug-14 15:30N 42°24' W 070°50'97975.1
2018-Aug-14 15:30N 42°22' W 071°02'0 0.0
2018-Aug-14 15:01N 42°22' W 071°02'518380.6
2018-Aug-14 15:01N 42°23' W 070°55'510.2
2018-Aug-14 14:30N 42°22' W 071°02'14758.6
2018-Aug-14 14:30N 42°21' W 071°01'1 2.6
2018-Aug-14 14:00N 42°22' W 071°02'312399.6
2018-Aug-14 14:00N 42°20' W 070°58'4 7.1
2018-Aug-14 13:30N 42°22' W 070°54'612.1
2018-Aug-14 13:00N 42°22' W 071°02'102857.4
2018-Aug-14 13:00N 42°24' W 070°49'1019.3
2018-Aug-14 12:30N 42°22' W 071°02'0 0.0
2018-Aug-14 12:01N 42°22' W 071°02'3 5.9
2018-Aug-14 11:30N 42°20' W 070°58'3 6.7
2018-Aug-14 11:00N 42°22' W 070°55'510.8
2018-Aug-14 10:30N 42°22' W 071°02'39310.3
2018-Aug-14 10:30N 42°20' W 070°59'3 5.2
2018-Aug-14 10:01N 42°22' W 071°02'016.0
2018-Aug-14 10:00N 42°22' W 071°02'1 2.4
2018-Aug-14 09:30N 42°21' W 071°02'1 2.4
2018-Aug-14 09:00N 42°22' W 071°02'0 0.9
2018-Aug-14 08:59N 42°22' W 071°02'0 0.0
2018-Aug-14 08:30N 42°22' W 071°02'0 0.0
2018-Aug-14 08:00N 42°22' W 071°02'0 0.0
2018-Aug-14 07:30N 42°22' W 071°02'0 0.0
2018-Aug-14 07:00N 42°22' W 071°02'0 0.0
2018-Aug-14 06:30N 42°22' W 071°02'0 0.0
2018-Aug-14 06:00N 42°22' W 071°02'064.8
2018-Aug-14 06:00N 42°22' W 071°02'4 7.1
2018-Aug-14 05:30N 42°20' W 070°58'4 7.2
2018-Aug-14 05:01N 42°22' W 071°02'81111.4
2018-Aug-14 05:00N 42°23' W 070°51'816.9
2018-Aug-14 04:30N 42°22' W 071°02'9281.4
2018-Aug-14 04:29N 42°23' W 070°50'2 3.8
2018-Aug-14 04:00N 42°23' W 070°52'726177.1
2018-Aug-14 04:00N 42°22' W 071°02'4 7.3
2018-Aug-14 03:30N 42°20' W 070°57'4 7.3
2018-Aug-14 03:01N 42°22' W 071°02'0 0.0
2018-Aug-14 02:30N 42°22' W 071°02'064.8
2018-Aug-14 02:30N 42°22' W 071°02'0 0.0
2018-Aug-14 02:00N 42°22' W 071°02'0 0.0
2018-Aug-14 01:31N 42°22' W 071°02'0 2.7
2018-Aug-14 01:30N 42°22' W 071°02'0 0.0
2018-Aug-14 01:01N 42°22' W 071°02'0 0.0
2018-Aug-14 00:31N 42°22' W 071°02'0 0.0
2018-Aug-14 00:00N 42°22' W 071°02'066.7
2018-Aug-14 00:00N 42°22' W 071°02'0 0.0
2018-Aug-13 23:30N 42°22' W 071°02'0 0.0
2018-Aug-13 23:01N 42°22' W 071°02'0 4.6
2018-Aug-13 23:00N 42°22' W 071°02'0 0.0
2018-Aug-13 22:31N 42°22' W 071°02'064.8
2018-Aug-13 22:31N 42°22' W 071°02'0 0.0
2018-Aug-13 22:00N 42°22' W 071°02'064.8
2018-Aug-13 22:00N 42°22' W 071°02'0 0.0
2018-Aug-13 21:30N 42°22' W 071°02'0 0.0
2018-Aug-13 21:00N 42°22' W 071°02'064.8
2018-Aug-13 21:00N 42°22' W 071°02'1 2.5
2018-Aug-13 20:30N 42°21' W 071°01'14494.3
2018-Aug-13 20:30N 42°22' W 071°02'612.2
2018-Aug-13 20:00N 42°23' W 070°54'4 7.8
2018-Aug-13 19:30N 42°20' W 070°58'3 6.8
2018-Aug-13 19:00N 42°21' W 071°02'137.4
2018-Aug-13 18:59N 42°22' W 071°02'1 1.8
2018-Aug-13 18:31N 42°22' W 071°03'1107.4
2018-Aug-13 18:30N 42°22' W 071°02'0 0.0
2018-Aug-13 18:00N 42°22' W 071°02'016.0
2018-Aug-13 18:00N 42°22' W 071°02'0 0.0
2018-Aug-13 17:30N 42°22' W 071°02'0 0.0
2018-Aug-13 17:00N 42°22' W 071°02'9386.6
2018-Aug-13 16:59N 42°21' W 070°49'919.9
2018-Aug-13 16:31N 42°22' W 071°02'9375.3
2018-Aug-13 16:29N 42°20' W 070°50'1 2.8
2018-Aug-13 16:00N 42°21' W 070°49'1017194.1
2018-Aug-13 16:00N 42°22' W 071°02'0 0.0
2018-Aug-13 15:30N 42°22' W 071°02'0 0.0
2018-Aug-13 15:00N 42°22' W 071°02'519258.6
2018-Aug-13 15:00N 42°22' W 070°55'510.7
2018-Aug-13 14:30N 42°22' W 071°02'312211.9
2018-Aug-13 14:30N 42°20' W 070°58'2 3.3
2018-Aug-13 14:00N 42°21' W 071°00'2 3.7
2018-Aug-13 13:30N 42°22' W 071°02'026.9
2018-Aug-13 13:30N 42°22' W 071°02'0 0.0
2018-Aug-13 13:00N 42°22' W 071°02'0 0.0
2018-Aug-13 12:30N 42°22' W 071°02'064.8
2018-Aug-13 12:30N 42°22' W 071°02'0 0.0
2018-Aug-13 12:00N 42°22' W 071°02'064.8
2018-Aug-13 12:00N 42°22' W 071°02'1 2.7
2018-Aug-13 11:31N 42°23' W 071°03'1171.4
2018-Aug-13 11:30N 42°22' W 071°02'0 0.0
2018-Aug-13 11:00N 42°22' W 071°02'0 0.0
2018-Aug-13 10:30N 42°22' W 071°02'0 0.0
2018-Aug-13 10:01N 42°22' W 071°02'0 0.3
2018-Aug-13 09:58N 42°22' W 071°02'0 0.0
2018-Aug-13 09:30N 42°22' W 071°02'0 0.0
2018-Aug-13 09:00N 42°22' W 071°02'066.7
2018-Aug-13 09:00N 42°22' W 071°02'0 0.0
2018-Aug-13 08:30N 42°22' W 071°02'2 3.0
2018-Aug-13 08:00N 42°21' W 071°00'2 3.0
2018-Aug-13 07:30N 42°22' W 071°02'1019.2
2018-Aug-13 06:59N 42°23' W 070°49'101529.6
2018-Aug-13 06:59N 42°22' W 071°02'714.4
2018-Aug-13 06:30N 42°19' W 070°53'4 8.7
2018-Aug-13 06:00N 42°20' W 070°59'3 5.7
2018-Aug-13 05:30N 42°22' W 071°02'0 0.0
2018-Aug-13 05:00N 42°22' W 071°02'0 0.0
2018-Aug-13 05:00N 42°22' W 071°02'0 0.0
2018-Aug-13 04:30N 42°22' W 071°02'0 0.0
2018-Aug-13 04:30N 42°22' W 071°02'0 0.0
2018-Aug-13 04:00N 42°22' W 071°02'917.6
2018-Aug-13 03:30N 42°23' W 070°50'917.6
2018-Aug-13 03:00N 42°22' W 071°02'415411.2
2018-Aug-13 03:00N 42°21' W 070°56'3 6.7
2018-Aug-13 02:30N 42°21' W 071°01'1 2.8
2018-Aug-13 02:00N 42°22' W 071°02'0 0.0
2018-Aug-13 01:30N 42°22' W 071°02'043.2
2018-Aug-13 01:30N 42°22' W 071°02'0 0.0
2018-Aug-13 01:00N 42°22' W 071°02'064.8
2018-Aug-13 01:00N 42°22' W 071°02'0 0.0
2018-Aug-13 00:30N 42°22' W 071°02'0 0.0
2018-Aug-13 00:00N 42°22' W 071°02'064.8
2018-Aug-13 00:00N 42°22' W 071°02'0 0.0
2018-Aug-12 23:30N 42°22' W 071°02'0 1.1
2018-Aug-12 23:29N 42°22' W 071°02'3 6.1
2018-Aug-12 23:00N 42°20' W 070°58'310674.2
2018-Aug-12 23:00N 42°22' W 071°02'4 7.4
2018-Aug-12 22:30N 42°20' W 070°57'41020.1
2018-Aug-12 22:30N 42°22' W 071°02'612.0
2018-Aug-12 22:00N 42°22' W 070°54'4 7.3
2018-Aug-12 21:30N 42°23' W 070°49'101498.7
2018-Aug-12 21:30N 42°22' W 071°02'0 0.0
2018-Aug-12 21:00N 42°22' W 071°02'723984.0
2018-Aug-12 21:00N 42°22' W 070°53'713.3
2018-Aug-12 20:30N 42°21' W 071°02'085.8
2018-Aug-12 20:30N 42°22' W 071°02'0 0.0
2018-Aug-12 20:00N 42°22' W 071°02'0 1.1
2018-Aug-12 19:59N 42°22' W 071°02'0 0.0
2018-Aug-12 19:30N 42°22' W 071°02'0 0.0
2018-Aug-12 19:00N 42°22' W 071°02'0 0.0
2018-Aug-12 18:31N 42°22' W 071°02'0 1.3
2018-Aug-12 18:30N 42°22' W 071°02'0 0.0
2018-Aug-12 18:00N 42°22' W 071°02'064.8
2018-Aug-12 18:00N 42°22' W 071°02'0 0.0
2018-Aug-12 17:30N 42°22' W 071°02'0 1.0
2018-Aug-12 17:00N 42°21' W 071°02'01727.2
2018-Aug-12 17:00N 42°22' W 071°02'0 0.0
2018-Aug-12 16:30N 42°22' W 071°02'412947.1
2018-Aug-12 16:30N 42°20' W 070°58'3 5.1
2018-Aug-12 16:00N 42°18' W 070°55'612.4
2018-Aug-12 15:30N 42°22' W 071°02'31220.2
2018-Aug-12 15:30N 42°19' W 070°59'3 6.8
2018-Aug-12 15:00N 42°22' W 071°02'4592.6
2018-Aug-12 15:00N 42°18' W 071°03'5 9.4
2018-Aug-12 14:30N 42°20' W 070°57'5726.2
2018-Aug-12 14:30N 42°18' W 071°03'1020.5
2018-Aug-12 14:00N 42°24' W 070°51'101518.3
2018-Aug-12 14:00N 42°18' W 071°03'4 8.1
2018-Aug-12 13:31N 42°20' W 070°58'4423.9
2018-Aug-12 13:30N 42°18' W 071°03'4 7.6
2018-Aug-12 13:00N 42°22' W 071°02'611.8
2018-Aug-12 12:31N 42°18' W 070°56'39835.3
2018-Aug-12 12:31N 42°20' W 070°58'3 6.4
2018-Aug-12 12:00N 42°22' W 071°02'0 0.0
2018-Aug-12 11:30N 42°22' W 071°02'0 0.0
2018-Aug-12 11:00N 42°22' W 071°02'043.2
2018-Aug-12 11:00N 42°22' W 071°02'0 0.0
2018-Aug-12 10:30N 42°22' W 071°02'0 0.0
2018-Aug-12 10:00N 42°22' W 071°02'0 0.0
2018-Aug-12 09:31N 42°22' W 071°02'0 0.0
2018-Aug-12 09:00N 42°22' W 071°02'064.8
2018-Aug-12 09:00N 42°22' W 071°02'0 0.0
2018-Aug-12 08:30N 42°22' W 071°02'043.2
2018-Aug-12 08:30N 42°22' W 071°02'0 0.0
2018-Aug-12 08:00N 42°22' W 071°02'0 1.2
2018-Aug-12 07:59N 42°22' W 071°02'0 0.0
2018-Aug-12 07:30N 42°22' W 071°02'0 0.0
2018-Aug-12 07:00N 42°22' W 071°02'0 0.0
2018-Aug-12 06:30N 42°22' W 071°02'064.8
2018-Aug-12 06:30N 42°22' W 071°02'2 3.1
2018-Aug-12 05:59N 42°21' W 071°00'4 8.7
2018-Aug-12 05:30N 42°22' W 070°55'510.4
2018-Aug-12 05:00N 42°22' W 071°02'9755.4
2018-Aug-12 04:59N 42°24' W 070°50'612.4
2018-Aug-12 04:30N 42°20' W 070°57'413842.3
2018-Aug-12 04:30N 42°22' W 071°02'1 2.1
2018-Aug-12 04:00N 42°21' W 071°01'1 2.1
2018-Aug-12 03:30N 42°22' W 071°02'0 0.0
2018-Aug-12 03:00N 42°22' W 071°02'0 0.0
2018-Aug-12 02:30N 42°22' W 071°02'016.0
2018-Aug-12 02:30N 42°22' W 071°02'0 0.0
2018-Aug-12 02:00N 42°22' W 071°02'016.0
2018-Aug-12 02:00N 42°22' W 071°02'0 0.0
2018-Aug-12 01:30N 42°22' W 071°02'0 1.1
2018-Aug-12 01:30N 42°22' W 071°02'1 1.2
2018-Aug-12 01:00N 42°22' W 071°03'1123.0
2018-Aug-12 01:00N 42°22' W 071°02'0 0.4
2018-Aug-12 00:30N 42°22' W 071°02'0764.2
2018-Aug-12 00:30N 42°22' W 071°02'611.9
2018-Aug-12 00:01N 42°23' W 070°54'64236.7
2018-Aug-12 00:00N 42°22' W 071°02'4 8.5
2018-Aug-11 23:30N 42°21' W 070°56'45165.7
2018-Aug-11 23:30N 42°22' W 071°02'0 0.0
2018-Aug-11 23:00N 42°22' W 071°02'016.0
2018-Aug-11 23:00N 42°22' W 071°02'0 0.0
2018-Aug-11 22:30N 42°22' W 071°02'016.0
2018-Aug-11 22:30N 42°22' W 071°02'0 0.0
2018-Aug-11 22:00N 42°22' W 071°02'0 5.3
2018-Aug-11 22:00N 42°22' W 071°02'3 6.0
2018-Aug-11 21:30N 42°20' W 070°58'33598.8
2018-Aug-11 21:30N 42°22' W 071°02'0 0.0
2018-Aug-11 21:00N 42°22' W 071°02'51284.2
2018-Aug-11 21:00N 42°22' W 070°56'4 7.8
2018-Aug-11 20:30N 42°20' W 071°00'26163.9
2018-Aug-11 20:30N 42°22' W 071°02'0 0.0
2018-Aug-11 20:00N 42°22' W 071°02'0 0.0
2018-Aug-11 19:30N 42°22' W 071°02'0 3.4
2018-Aug-11 19:30N 42°22' W 071°02'0 0.0
2018-Aug-11 19:00N 42°22' W 071°02'0 0.0
2018-Aug-11 18:30N 42°22' W 071°02'0 0.0
2018-Aug-11 18:00N 42°22' W 071°02'13350.2
2018-Aug-11 18:00N 42°22' W 071°03'1 1.9
2018-Aug-11 17:30N 42°22' W 071°02'0 2.5
2018-Aug-11 17:30N 42°22' W 071°02'0 0.0
2018-Aug-11 17:00N 42°22' W 071°02'0 3.3
2018-Aug-11 17:00N 42°22' W 071°02'0 0.0
2018-Aug-11 16:30N 42°22' W 071°02'0 2.0
2018-Aug-11 16:30N 42°22' W 071°02'0 0.0
2018-Aug-11 16:00N 42°22' W 071°02'0 6.5
2018-Aug-11 16:00N 42°22' W 071°02'0 0.0
2018-Aug-11 15:30N 42°22' W 071°02'0 0.0
2018-Aug-11 15:00N 42°22' W 071°02'0 5.4
2018-Aug-11 15:00N 42°22' W 071°02'0 0.0
2018-Aug-11 14:30N 42°22' W 071°02'010.8
2018-Aug-11 14:30N 42°22' W 071°02'0 0.0
2018-Aug-11 14:00N 42°22' W 071°02'016.2
2018-Aug-11 14:00N 42°22' W 071°02'0 0.0
2018-Aug-11 13:30N 42°22' W 071°02'016.2
2018-Aug-11 13:30N 42°22' W 071°02'0 0.0
2018-Aug-11 13:00N 42°22' W 071°02'032.4
2018-Aug-11 13:00N 42°22' W 071°02'0 0.0
2018-Aug-11 12:30N 42°22' W 071°02'021.6
2018-Aug-11 12:30N 42°22' W 071°02'0 0.0
2018-Aug-11 12:00N 42°22' W 071°02'0 9.5
2018-Aug-11 12:00N 42°22' W 071°02'2 3.6
2018-Aug-11 11:30N 42°21' W 071°00'3 6.8
2018-Aug-11 11:00N 42°21' W 070°56'51835.3
2018-Aug-11 11:00N 42°22' W 071°02'0 0.0
2018-Aug-11 10:30N 42°22' W 071°02'71119.8
2018-Aug-11 10:30N 42°24' W 070°53'1 2.5
2018-Aug-11 10:00N 42°24' W 070°51'830251.0
2018-Aug-11 10:00N 42°22' W 071°02'3 6.9
2018-Aug-11 09:30N 42°20' W 070°58'33088.3
2018-Aug-11 09:30N 42°22' W 071°02'0 0.0
2018-Aug-11 09:00N 42°22' W 071°02'14527.1
2018-Aug-11 09:00N 42°21' W 071°01'1 2.5
2018-Aug-11 08:30N 42°22' W 071°02'0 0.0
2018-Aug-11 08:00N 42°22' W 071°02'0 0.0
2018-Aug-11 07:30N 42°22' W 071°02'0 6.5
2018-Aug-11 07:30N 42°22' W 071°02'0 0.0
2018-Aug-11 07:00N 42°22' W 071°02'043.2
2018-Aug-11 07:00N 42°22' W 071°02'0 0.0
2018-Aug-11 06:30N 42°22' W 071°02'021.6
2018-Aug-11 06:30N 42°22' W 071°02'0 0.0
2018-Aug-11 06:00N 42°22' W 071°02'0 4.3
2018-Aug-11 06:00N 42°22' W 071°02'0 0.0
2018-Aug-11 05:30N 42°22' W 071°02'0 5.9
2018-Aug-11 05:30N 42°22' W 071°02'0 0.0
2018-Aug-11 05:00N 42°22' W 071°02'0 5.4
2018-Aug-11 05:00N 42°22' W 071°02'0 0.0
2018-Aug-11 04:30N 42°22' W 071°02'0 6.5
2018-Aug-11 04:30N 42°22' W 071°02'0 0.0
2018-Aug-11 04:00N 42°22' W 071°02'0 0.0
2018-Aug-11 03:30N 42°22' W 071°02'0 4.8
2018-Aug-11 03:30N 42°22' W 071°02'0 0.0
2018-Aug-11 03:00N 42°22' W 071°02'0 1.3
2018-Aug-11 03:00N 42°22' W 071°02'0 0.0
2018-Aug-11 02:30N 42°22' W 071°02'0 0.0
2018-Aug-11 02:00N 42°22' W 071°02'0 0.0
2018-Aug-11 01:30N 42°22' W 071°02'0 5.4
2018-Aug-11 01:30N 42°22' W 071°02'0 0.0
2018-Aug-11 01:01N 42°22' W 071°02'0 9.3
2018-Aug-11 01:00N 42°22' W 071°02'0 0.0
2018-Aug-11 00:30N 42°22' W 071°02'064.8
2018-Aug-11 00:30N 42°22' W 071°02'0 0.0
2018-Aug-11 00:00N 42°22' W 071°02'064.8
2018-Aug-11 00:00N 42°22' W 071°02'0 0.0
2018-Aug-10 23:30N 42°22' W 071°02'0 0.0
2018-Aug-10 23:01N 42°22' W 071°02'0 0.0
2018-Aug-10 22:30N 42°22' W 071°02'0 0.0
2018-Aug-10 22:01N 42°22' W 071°02'064.8
2018-Aug-10 22:00N 42°22' W 071°02'1 2.4
2018-Aug-10 21:30N 42°21' W 071°02'714.2
2018-Aug-10 21:00N 42°23' W 070°53'73416.8
2018-Aug-10 21:00N 42°22' W 071°02'3 6.4
2018-Aug-10 20:30N 42°20' W 070°58'3 6.1
2018-Aug-10 20:01N 42°22' W 071°02'0961.2
2018-Aug-10 20:01N 42°22' W 071°02'0 0.0
2018-Aug-10 19:30N 42°22' W 071°02'0 0.0
2018-Aug-10 19:00N 42°22' W 071°02'0 0.0
2018-Aug-10 18:30N 42°22' W 071°02'064.8
2018-Aug-10 18:30N 42°22' W 071°02'0 0.0
2018-Aug-10 18:00N 42°22' W 071°02'0 0.0
2018-Aug-10 17:31N 42°22' W 071°02'0 0.0
2018-Aug-10 17:00N 42°22' W 071°02'0 0.0
2018-Aug-10 16:30N 42°22' W 071°02'0 0.0
2018-Aug-10 16:00N 42°22' W 071°02'043.2
2018-Aug-10 16:00N 42°22' W 071°02'0 0.0
2018-Aug-10 15:30N 42°22' W 071°02'0 0.0
2018-Aug-10 15:00N 42°22' W 071°02'0 7.2
2018-Aug-10 15:00N 42°22' W 071°02'0 0.0
2018-Aug-10 14:30N 42°22' W 071°02'064.8
2018-Aug-10 14:30N 42°22' W 071°02'0 0.0
2018-Aug-10 14:00N 42°22' W 071°02'064.8
2018-Aug-10 14:00N 42°22' W 071°02'0 0.0
2018-Aug-10 13:31N 42°22' W 071°02'064.8
2018-Aug-10 13:31N 42°22' W 071°02'0 0.0
2018-Aug-10 13:01N 42°22' W 071°02'0 0.0
2018-Aug-10 12:30N 42°22' W 071°02'0 0.0
2018-Aug-10 12:00N 42°22' W 071°02'0 0.0
2018-Aug-10 11:30N 42°22' W 071°02'010.8
2018-Aug-10 11:30N 42°22' W 071°02'0 0.0
2018-Aug-10 11:01N 42°22' W 071°02'4 7.9
2018-Aug-10 10:30N 42°20' W 070°57'713.5
2018-Aug-10 10:00N 42°24' W 070°49'104357.4
2018-Aug-10 10:00N 42°22' W 071°02'4 7.4
2018-Aug-10 09:30N 42°20' W 070°57'4 7.3
2018-Aug-10 09:00N 42°22' W 071°02'010.8
2018-Aug-10 09:00N 42°22' W 071°02'0 0.0
2018-Aug-10 08:30N 42°22' W 071°02'0 4.1
2018-Aug-10 08:30N 42°22' W 071°02'0 0.0
2018-Aug-10 08:00N 42°22' W 071°02'0 7.2
2018-Aug-10 08:00N 42°22' W 071°02'0 0.0
2018-Aug-10 07:30N 42°22' W 071°02'021.6
2018-Aug-10 07:30N 42°22' W 071°02'0 0.0
2018-Aug-10 07:00N 42°22' W 071°02'0 5.4
2018-Aug-10 07:00N 42°22' W 071°02'0 0.0
2018-Aug-10 06:30N 42°22' W 071°02'0 6.2
2018-Aug-10 06:30N 42°22' W 071°02'0 0.0
2018-Aug-10 06:00N 42°22' W 071°02'064.8
2018-Aug-10 06:00N 42°22' W 071°02'0 0.0
2018-Aug-10 05:30N 42°22' W 071°02'0 9.3
2018-Aug-10 05:30N 42°22' W 071°02'0 0.0
2018-Aug-10 05:00N 42°22' W 071°02'0 2.1
2018-Aug-10 05:00N 42°22' W 071°02'0 0.0
2018-Aug-10 04:30N 42°22' W 071°02'010.8
2018-Aug-10 04:30N 42°22' W 071°02'0 0.0
2018-Aug-10 04:00N 42°22' W 071°02'0 0.0
2018-Aug-10 03:30N 42°22' W 071°02'0 0.0
2018-Aug-10 03:00N 42°22' W 071°02'0 3.1
2018-Aug-10 03:00N 42°22' W 071°02'0 0.0
2018-Aug-10 02:30N 42°22' W 071°02'0 0.0
2018-Aug-10 02:00N 42°22' W 071°02'0 0.0
2018-Aug-10 01:30N 42°22' W 071°02'0 0.0
2018-Aug-10 01:00N 42°22' W 071°02'0 5.4
2018-Aug-10 01:00N 42°22' W 071°02'0 0.0
2018-Aug-10 00:30N 42°22' W 071°02'0 0.0
2018-Aug-10 00:00N 42°22' W 071°02'010.8
2018-Aug-10 00:00N 42°22' W 071°02'0 0.0
2018-Aug-09 23:30N 42°22' W 071°02'0 0.0
2018-Aug-09 23:00N 42°22' W 071°02'043.2
2018-Aug-09 23:00N 42°22' W 071°02'0 0.0
2018-Aug-09 22:31N 42°22' W 071°02'043.2
2018-Aug-09 22:31N 42°22' W 071°02'0 0.0
2018-Aug-09 22:00N 42°22' W 071°02'0 0.0
2018-Aug-09 21:30N 42°22' W 071°02'043.2
2018-Aug-09 21:30N 42°22' W 071°02'0 0.0
2018-Aug-09 21:00N 42°22' W 071°02'0 0.0
2018-Aug-09 20:31N 42°22' W 071°02'0 0.0
2018-Aug-09 20:01N 42°22' W 071°02'0 0.0
2018-Aug-09 19:30N 42°22' W 071°02'064.8
2018-Aug-09 19:30N 42°22' W 071°02'0 0.0
2018-Aug-09 19:00N 42°22' W 071°02'0 0.0
2018-Aug-09 18:30N 42°22' W 071°02'064.8
2018-Aug-09 18:30N 42°22' W 071°02'0 0.0
2018-Aug-09 18:00N 42°22' W 071°02'0 0.0
2018-Aug-09 17:30N 42°22' W 071°02'0 2.9
2018-Aug-09 17:30N 42°22' W 071°02'0 0.0
2018-Aug-09 17:00N 42°22' W 071°02'064.8
2018-Aug-09 17:00N 42°22' W 071°02'0 0.0
2018-Aug-09 16:30N 42°22' W 071°02'064.8
2018-Aug-09 16:30N 42°22' W 071°02'0 0.0
2018-Aug-09 16:00N 42°22' W 071°02'043.2
2018-Aug-09 16:00N 42°22' W 071°02'0 0.0
2018-Aug-09 15:30N 42°22' W 071°02'064.8
2018-Aug-09 15:30N 42°22' W 071°02'0 0.0
2018-Aug-09 15:00N 42°22' W 071°02'0 0.0
2018-Aug-09 14:30N 42°22' W 071°02'0 0.0
2018-Aug-09 14:01N 42°22' W 071°02'064.8
2018-Aug-09 14:00N 42°22' W 071°02'0 0.0
2018-Aug-09 13:30N 42°22' W 071°02'0 0.0
2018-Aug-09 13:01N 42°22' W 071°02'0 4.6
2018-Aug-09 13:00N 42°22' W 071°02'0 0.0
2018-Aug-09 12:30N 42°22' W 071°02'0 4.3
2018-Aug-09 12:30N 42°22' W 071°02'0 0.0
2018-Aug-09 12:00N 42°22' W 071°02'0 0.0
2018-Aug-09 11:30N 42°22' W 071°02'0 0.0
2018-Aug-09 11:00N 42°22' W 071°02'010.8
2018-Aug-09 11:00N 42°22' W 071°02'0 0.0
2018-Aug-09 10:31N 42°22' W 071°02'0 0.0
2018-Aug-09 10:00N 42°22' W 071°02'0 0.0
2018-Aug-09 09:30N 42°22' W 071°02'0 0.0
2018-Aug-09 09:00N 42°22' W 071°02'0 0.0
2018-Aug-09 08:30N 42°22' W 071°02'0 0.0
2018-Aug-09 08:00N 42°22' W 071°02'064.8
2018-Aug-09 08:00N 42°22' W 071°02'0 0.0
2018-Aug-09 07:30N 42°22' W 071°02'0 2.0
2018-Aug-09 07:30N 42°22' W 071°02'0 0.0
2018-Aug-09 07:01N 42°22' W 071°02'0 0.0
2018-Aug-09 06:30N 42°22' W 071°02'0 0.0
2018-Aug-09 06:00N 42°22' W 071°02'0 0.0
2018-Aug-09 05:30N 42°22' W 071°02'0 0.0
2018-Aug-09 05:01N 42°22' W 071°02'0 2.2
2018-Aug-09 05:00N 42°22' W 071°02'0 0.0
2018-Aug-09 04:30N 42°22' W 071°02'0 0.0
2018-Aug-09 04:00N 42°22' W 071°02'0 0.0
2018-Aug-09 03:30N 42°22' W 071°02'032.4
2018-Aug-09 03:30N 42°22' W 071°02'0 0.0
2018-Aug-09 03:00N 42°22' W 071°02'064.8
2018-Aug-09 03:00N 42°22' W 071°02'0 0.0
2018-Aug-09 02:30N 42°22' W 071°02'0 0.0
2018-Aug-09 02:00N 42°22' W 071°02'010.8
2018-Aug-09 02:00N 42°22' W 071°02'0 0.3
2018-Aug-09 01:30N 42°22' W 071°02'1 1.5
2018-Aug-09 01:00N 42°22' W 071°03'1362.7
2018-Aug-09 01:00N 42°22' W 071°02'1 1.9
2018-Aug-09 00:31N 42°22' W 071°03'1 1.9
2018-Aug-09 00:00N 42°22' W 071°02'016.0
2018-Aug-09 00:00N 42°22' W 071°02'0 0.0
2018-Aug-08 23:30N 42°22' W 071°02'0 0.0
2018-Aug-08 23:00N 42°22' W 071°02'026.9
2018-Aug-08 23:00N 42°22' W 071°02'0 0.0
2018-Aug-08 22:30N 42°22' W 071°02'0 4.0
2018-Aug-08 22:30N 42°22' W 071°02'0 0.0
2018-Aug-08 22:00N 42°22' W 071°02'12961.3
2018-Aug-08 22:00N 42°21' W 071°01'612.6
2018-Aug-08 21:31N 42°22' W 070°53'7441.5
2018-Aug-08 21:30N 42°22' W 071°02'5 9.3
2018-Aug-08 21:00N 42°21' W 070°56'53255.1
2018-Aug-08 21:00N 42°22' W 071°02'3 5.9
2018-Aug-08 20:30N 42°20' W 070°58'310586.3
2018-Aug-08 20:30N 42°22' W 071°02'0 0.0
2018-Aug-08 20:00N 42°22' W 071°02'310636.6
2018-Aug-08 20:00N 42°20' W 070°58'3 5.9
2018-Aug-08 19:30N 42°22' W 071°02'0 0.0
2018-Aug-08 19:00N 42°22' W 071°02'14280.4
2018-Aug-08 19:00N 42°21' W 071°02'1 2.4
2018-Aug-08 18:30N 42°22' W 071°02'021.6
2018-Aug-08 18:30N 42°22' W 071°02'0 0.0
2018-Aug-08 18:00N 42°22' W 071°02'064.8
2018-Aug-08 18:00N 42°22' W 071°02'0 0.0
2018-Aug-08 17:30N 42°22' W 071°02'021.6
2018-Aug-08 17:30N 42°22' W 071°02'0 0.0
2018-Aug-08 17:00N 42°22' W 071°02'064.8
2018-Aug-08 17:00N 42°22' W 071°02'0 0.0
2018-Aug-08 16:30N 42°22' W 071°02'064.8
2018-Aug-08 16:30N 42°22' W 071°02'0 0.0
2018-Aug-08 16:00N 42°22' W 071°02'12072.4
2018-Aug-08 16:00N 42°22' W 071°03'1 1.6
2018-Aug-08 15:30N 42°23' W 071°03'1 2.3
2018-Aug-08 15:00N 42°22' W 071°02'311179.0
2018-Aug-08 15:00N 42°20' W 070°58'1 2.2
2018-Aug-08 14:30N 42°21' W 070°57'4 7.5
2018-Aug-08 14:00N 42°21' W 071°02'0 1.0
2018-Aug-08 13:30N 42°22' W 071°02'0 0.0
2018-Aug-08 13:00N 42°22' W 071°02'0 5.0
2018-Aug-08 13:00N 42°22' W 071°02'0 0.0
2018-Aug-08 12:30N 42°22' W 071°02'064.8
2018-Aug-08 12:30N 42°22' W 071°02'0 0.0
2018-Aug-08 12:00N 42°22' W 071°02'0 0.0
2018-Aug-08 11:30N 42°22' W 071°02'0 0.0
2018-Aug-08 11:00N 42°22' W 071°02'0 0.0
2018-Aug-08 10:31N 42°22' W 071°02'0 0.0
2018-Aug-08 10:00N 42°22' W 071°02'064.8
2018-Aug-08 10:00N 42°22' W 071°02'0 0.0
2018-Aug-08 09:30N 42°22' W 071°02'0 0.0
2018-Aug-08 09:00N 42°22' W 071°02'0 0.0
2018-Aug-08 08:30N 42°22' W 071°02'043.2
2018-Aug-08 08:30N 42°22' W 071°02'0 0.0
2018-Aug-08 08:00N 42°22' W 071°02'0 0.0
2018-Aug-08 07:30N 42°22' W 071°02'12925.3
2018-Aug-08 07:30N 42°21' W 071°01'1 1.6
2018-Aug-08 07:00N 42°22' W 071°02'620294.1
2018-Aug-08 07:00N 42°19' W 070°56'4 8.8
2018-Aug-08 06:31N 42°23' W 070°53'5 9.0
2018-Aug-08 06:00N 42°20' W 070°59'3 5.6
2018-Aug-08 05:30N 42°22' W 071°02'064.8
2018-Aug-08 05:30N 42°22' W 071°02'0 0.0
2018-Aug-08 05:00N 42°22' W 071°02'0 0.0
2018-Aug-08 04:30N 42°22' W 071°02'0 0.0
2018-Aug-08 04:00N 42°22' W 071°02'0 0.0
2018-Aug-08 03:30N 42°22' W 071°02'0 0.0
2018-Aug-08 03:00N 42°22' W 071°02'064.8
2018-Aug-08 03:00N 42°22' W 071°02'3 6.3
2018-Aug-08 02:31N 42°20' W 070°58'0 0.2
2018-Aug-08 02:00N 42°20' W 070°58'0 0.2
2018-Aug-08 01:30N 42°20' W 070°58'3 6.2
2018-Aug-08 01:00N 42°18' W 070°55'4 7.7
2018-Aug-08 00:30N 42°20' W 070°59'28114.6
2018-Aug-08 00:30N 42°22' W 071°02'611.6
2018-Aug-08 00:00N 42°23' W 070°54'62069.1
2018-Aug-08 00:00N 42°22' W 071°02'2 3.5
2018-Aug-07 23:31N 42°20' W 071°00'2365.1
2018-Aug-07 23:30N 42°22' W 071°02'0 0.0
2018-Aug-07 23:00N 42°22' W 071°02'0107.9
2018-Aug-07 23:00N 42°21' W 071°02'0 0.8
2018-Aug-07 22:30N 42°22' W 071°02'0 0.0
2018-Aug-07 22:00N 42°22' W 071°02'0 8.1
2018-Aug-07 22:00N 42°22' W 071°02'0 0.0
2018-Aug-07 21:31N 42°22' W 071°02'0 0.0
2018-Aug-07 21:00N 42°22' W 071°02'0 0.0
2018-Aug-07 20:31N 42°22' W 071°02'043.2
2018-Aug-07 20:30N 42°22' W 071°02'0 0.0
2018-Aug-07 20:00N 42°22' W 071°02'0 0.0
2018-Aug-07 19:30N 42°22' W 071°02'1 1.2
2018-Aug-07 19:00N 42°22' W 071°03'1 1.2
2018-Aug-07 18:30N 42°22' W 071°02'815.8
2018-Aug-07 18:00N 42°20' W 070°52'87109.1
2018-Aug-07 18:00N 42°22' W 071°02'611.5
2018-Aug-07 17:30N 42°19' W 070°55'620685.2
2018-Aug-07 17:30N 42°22' W 071°02'0 0.0
2018-Aug-07 17:01N 42°22' W 071°02'0 0.0
2018-Aug-07 16:30N 42°22' W 071°02'0 0.0
2018-Aug-07 16:00N 42°22' W 071°02'0 0.0
2018-Aug-07 15:30N 42°22' W 071°02'0 0.0
2018-Aug-07 15:01N 42°22' W 071°02'0 1.1
2018-Aug-07 15:00N 42°22' W 071°02'0 0.0
2018-Aug-07 14:30N 42°22' W 071°02'623234.4
2018-Aug-07 14:30N 42°19' W 070°54'612.9
2018-Aug-07 14:00N 42°22' W 071°02'816.3
2018-Aug-07 13:30N 42°20' W 070°51'8639.5
2018-Aug-07 13:30N 42°22' W 071°02'613.2
2018-Aug-07 13:00N 42°17' W 070°56'612.9
2018-Aug-07 12:30N 42°22' W 071°02'827130.6
2018-Aug-07 12:30N 42°15' W 070°57'510.3
2018-Aug-07 12:00N 42°20' W 070°60'2 4.8
2018-Aug-07 11:30N 42°22' W 071°02'0 0.0
2018-Aug-07 11:00N 42°22' W 071°02'0 0.0
2018-Aug-07 10:30N 42°22' W 071°02'0 0.0
2018-Aug-07 10:00N 42°22' W 071°02'023.7
2018-Aug-07 10:00N 42°22' W 071°02'510.1
2018-Aug-07 09:30N 42°22' W 070°55'51795.6
2018-Aug-07 09:30N 42°22' W 071°02'1019.7
2018-Aug-07 09:01N 42°24' W 070°49'611.5
2018-Aug-07 08:30N 42°21' W 070°56'4 7.5
2018-Aug-07 08:00N 42°21' W 071°01'713.9
2018-Aug-07 07:30N 42°23' W 070°52'725864.2
2018-Aug-07 07:30N 42°22' W 071°02'510.6
2018-Aug-07 07:00N 42°22' W 070°55'510.6
2018-Aug-07 06:30N 42°22' W 071°02'0 0.0
2018-Aug-07 06:00N 42°22' W 071°02'0 0.0
2018-Aug-07 05:30N 42°22' W 071°02'064.8
2018-Aug-07 05:30N 42°22' W 071°02'0 0.0
2018-Aug-07 05:00N 42°22' W 071°02'0 0.0
2018-Aug-07 04:30N 42°22' W 071°02'064.8
2018-Aug-07 04:30N 42°22' W 071°02'0 0.0
2018-Aug-07 04:00N 42°22' W 071°02'0 0.0
2018-Aug-07 03:30N 42°22' W 071°02'064.8
2018-Aug-07 03:30N 42°22' W 071°02'0 0.0
2018-Aug-07 03:00N 42°22' W 071°02'2 3.3
2018-Aug-07 02:31N 42°23' W 071°03'2641.1
2018-Aug-07 02:30N 42°22' W 071°02'2 3.6
2018-Aug-07 02:00N 42°23' W 071°03'2532.6
2018-Aug-07 02:00N 42°22' W 071°02'2 4.2
2018-Aug-07 01:31N 42°20' W 070°60'2 4.2
2018-Aug-07 01:00N 42°22' W 071°02'519707.4
2018-Aug-07 01:00N 42°22' W 070°54'4 7.9
2018-Aug-07 00:31N 42°24' W 070°50'98327.0
2018-Aug-07 00:30N 42°22' W 071°02'0 0.0
2018-Aug-07 00:00N 42°22' W 071°02'6679.5
2018-Aug-07 00:00N 42°22' W 070°53'611.7
2018-Aug-06 23:30N 42°21' W 071°01'13428.3
2018-Aug-06 23:30N 42°22' W 071°02'4 8.6
2018-Aug-06 23:00N 42°21' W 070°56'1 1.6
2018-Aug-06 22:30N 42°20' W 070°57'4 7.9
2018-Aug-06 22:00N 42°22' W 071°02'1 2.4
2018-Aug-06 21:30N 42°21' W 071°01'14412.9
2018-Aug-06 21:30N 42°22' W 071°02'0 0.0
2018-Aug-06 21:00N 42°22' W 071°02'0 0.0
2018-Aug-06 20:30N 42°22' W 071°02'064.8
2018-Aug-06 20:30N 42°22' W 071°02'0 0.0
2018-Aug-06 20:01N 42°22' W 071°02'0 0.0
2018-Aug-06 19:30N 42°22' W 071°02'0 0.0
2018-Aug-06 19:00N 42°22' W 071°02'043.2
2018-Aug-06 19:00N 42°22' W 071°02'0 0.0
2018-Aug-06 18:30N 42°22' W 071°02'021.6
2018-Aug-06 18:30N 42°22' W 071°02'0 0.0
2018-Aug-06 18:00N 42°22' W 071°02'0 0.0
2018-Aug-06 17:30N 42°22' W 071°02'064.8
2018-Aug-06 17:30N 42°22' W 071°02'0 0.0
2018-Aug-06 17:00N 42°22' W 071°02'0 0.0
2018-Aug-06 16:31N 42°22' W 071°02'0 7.2
2018-Aug-06 16:30N 42°22' W 071°02'0 0.0
2018-Aug-06 16:00N 42°22' W 071°02'021.6
2018-Aug-06 16:00N 42°22' W 071°02'0 0.0
2018-Aug-06 15:31N 42°22' W 071°02'016.2
2018-Aug-06 15:30N 42°22' W 071°02'0 0.0
2018-Aug-06 15:00N 42°22' W 071°02'1 2.5
2018-Aug-06 14:30N 42°23' W 071°03'1548.2
2018-Aug-06 14:30N 42°22' W 071°02'1 2.6
2018-Aug-06 14:01N 42°23' W 071°03'1333.5
2018-Aug-06 14:00N 42°22' W 071°02'0 1.0
2018-Aug-06 13:30N 42°21' W 071°02'0 1.0
2018-Aug-06 13:00N 42°22' W 071°02'78324.2
2018-Aug-06 13:00N 42°19' W 070°53'5 9.1
2018-Aug-06 12:30N 42°20' W 070°59'39336.7
2018-Aug-06 12:30N 42°22' W 071°02'1 1.7
2018-Aug-06 12:00N 42°21' W 071°01'612.4
2018-Aug-06 11:31N 42°16' W 070°56'72536.8
2018-Aug-06 11:30N 42°22' W 071°02'611.9
2018-Aug-06 11:01N 42°18' W 070°55'611.8
2018-Aug-06 10:30N 42°22' W 071°02'915492.1
2018-Aug-06 10:30N 42°23' W 070°50'3 5.3
2018-Aug-06 10:00N 42°22' W 070°54'611.6
2018-Aug-06 09:30N 42°21' W 071°01'4 8.0
2018-Aug-06 09:00N 42°21' W 070°56'5 9.1
2018-Aug-06 08:31N 42°22' W 071°02'  

Dump ship's entire track history